Wetterdaten: Samstag, 23.04.2022
Datum Zeit Temp. Aussen Temp. o. S. Temp +5cm Feuchte Auss Luftdruck Regen Sonnenschein Regendauer Solar Windben Empfang
23.04.2022 00:00 10,6 C 9,4 C 6,1 C 82 % 1005,5 hPa 0,0 l/m 0 min 0 min 0 W/m 9,7 km/h (2 Bft) 97,83 %
23.04.2022 00:02 10,6 C 9,4 C 6,1 C 82 % 1005,5 hPa 0,0 l/m 0 min 0 min 0 W/m 6,4 km/h (2 Bft) 95,12 %
23.04.2022 00:04 10,6 C 9,4 C 6,1 C 82 % 1005,4 hPa 0,0 l/m 0 min 0 min 0 W/m 6,4 km/h (2 Bft) 97,87 %
23.04.2022 00:08 10,6 C 9,4 C 6,1 C 82 % 1005,4 hPa 0,0 l/m 0 min 0 min 0 W/m 3,2 km/h (1 Bft) 97,87 %
23.04.2022 00:10 10,5 C 9,4 C 6,1 C 83 % 1005,4 hPa 0,0 l/m 0 min 0 min 0 W/m 6,4 km/h (2 Bft) 97,83 %
23.04.2022 00:12 10,5 C 9,4 C 6,1 C 83 % 1005,4 hPa 0,0 l/m 0 min 0 min 0 W/m 6,4 km/h (2 Bft) 97,87 %
23.04.2022 00:14 10,5 C 9,4 C 6,1 C 83 % 1005,4 hPa 0,0 l/m 0 min 0 min 0 W/m 6,4 km/h (2 Bft) 97,87 %
23.04.2022 00:16 10,5 C 9,4 C 6,1 C 83 % 1005,4 hPa 0,0 l/m 0 min 0 min 0 W/m 6,4 km/h (2 Bft) 97,87 %
23.04.2022 00:18 10,4 C 9,4 C 6,1 C 83 % 1005,5 hPa 0,0 l/m 0 min 0 min 0 W/m 6,4 km/h (2 Bft) 97,87 %
23.04.2022 00:20 10,4 C 9,4 C 6,1 C 83 % 1005,5 hPa 0,0 l/m 0 min 0 min 0 W/m 9,7 km/h (2 Bft) 97,87 %
23.04.2022 00:22 10,4 C 9,4 C 6,1 C 84 % 1005,4 hPa 0,0 l/m 0 min 0 min 0 W/m 6,4 km/h (2 Bft) 97,87 %
23.04.2022 00:24 10,4 C 9,4 C 6,1 C 84 % 1005,4 hPa 0,0 l/m 0 min 0 min 0 W/m 6,4 km/h (2 Bft) 97,83 %
23.04.2022 00:26 10,4 C 9,4 C 6,1 C 84 % 1005,4 hPa 0,0 l/m 0 min 0 min 0 W/m 6,4 km/h (2 Bft) 97,87 %
23.04.2022 00:28 10,4 C 9,4 C 6,1 C 84 % 1005,4 hPa 0,0 l/m 0 min 0 min 0 W/m 6,4 km/h (2 Bft) 100,00 %
23.04.2022 00:30 10,4 C 9,4 C 6,1 C 84 % 1005,4 hPa 0,0 l/m 0 min 0 min 0 W/m 6,4 km/h (2 Bft) 100,00 %
23.04.2022 00:32 10,4 C 9,4 C 6,1 C 84 % 1005,4 hPa 0,0 l/m 0 min 0 min 0 W/m 6,4 km/h (2 Bft) 100,00 %
23.04.2022 00:34 10,4 C 9,4 C 6,1 C 84 % 1005,4 hPa 0,0 l/m 0 min 0 min 0 W/m 9,7 km/h (2 Bft) 97,83 %
23.04.2022 00:36 10,4 C 9,4 C 6,1 C 84 % 1005,4 hPa 0,0 l/m 0 min 0 min 0 W/m 6,4 km/h (2 Bft) 100,00 %
23.04.2022 00:38 10,3 C 9,4 C 6,1 C 84 % 1005,4 hPa 0,0 l/m 0 min 0 min 0 W/m 9,7 km/h (2 Bft) 100,00 %
23.04.2022 00:40 10,3 C 9,4 C 6,1 C 84 % 1005,4 hPa 0,0 l/m 0 min 0 min 0 W/m 9,7 km/h (2 Bft) 100,00 %
23.04.2022 00:42 10,3 C 9,4 C 6,1 C 84 % 1005,4 hPa 0,0 l/m 0 min 0 min 0 W/m 9,7 km/h (2 Bft) 100,00 %
23.04.2022 00:44 10,3 C 9,4 C 6,1 C 84 % 1005,5 hPa 0,0 l/m 0 min 0 min 0 W/m 6,4 km/h (2 Bft) 100,00 %
23.04.2022 00:46 10,3 C 9,4 C 6,1 C 84 % 1005,4 hPa 0,0 l/m 0 min 0 min 0 W/m 6,4 km/h (2 Bft) 100,00 %
23.04.2022 00:48 10,3 C 9,4 C 6,1 C 84 % 1005,4 hPa 0,0 l/m 0 min 0 min 0 W/m 12,9 km/h (3 Bft) 100,00 %
23.04.2022 00:50 10,3 C 9,4 C 6,1 C 84 % 1005,4 hPa 0,0 l/m 0 min 0 min 0 W/m 9,7 km/h (2 Bft) 97,87 %
23.04.2022 00:52 10,3 C 9,4 C 6,1 C 84 % 1005,3 hPa 0,0 l/m 0 min 0 min 0 W/m 9,7 km/h (2 Bft) 100,00 %
23.04.2022 00:54 10,3 C 9,4 C 6,1 C 84 % 1005,3 hPa 0,0 l/m 0 min 0 min 0 W/m 6,4 km/h (2 Bft) 100,00 %
23.04.2022 00:56 10,3 C 9,4 C 6,1 C 84 % 1005,3 hPa 0,0 l/m 0 min 0 min 0 W/m 6,4 km/h (2 Bft) 97,87 %
23.04.2022 00:58 10,3 C 9,4 C 6,1 C 84 % 1005,4 hPa 0,0 l/m 0 min 0 min 0 W/m 9,7 km/h (2 Bft) 100,00 %
23.04.2022 01:00 10,3 C 9,4 C 6,1 C 85 % 1005,4 hPa 0,0 l/m 0 min 0 min 0 W/m 3,2 km/h (1 Bft) 52,27 %
23.04.2022 01:02 10,3 C 9,4 C 6,1 C 85 % 1005,4 hPa 0,0 l/m 0 min 0 min 0 W/m 6,4 km/h (2 Bft) 100,00 %
23.04.2022 01:04 10,3 C 9,4 C 6,1 C 85 % 1005,4 hPa 0,0 l/m 0 min 0 min 0 W/m 6,4 km/h (2 Bft) 100,00 %
23.04.2022 01:06 10,3 C 9,4 C 6,1 C 85 % 1005,4 hPa 0,0 l/m 0 min 0 min 0 W/m 6,4 km/h (2 Bft) 100,00 %
23.04.2022 01:08 10,2 C 9,4 C 6,1 C 85 % 1005,3 hPa 0,0 l/m 0 min 0 min 0 W/m 12,9 km/h (3 Bft) 97,87 %
23.04.2022 01:10 10,2 C 9,4 C 6,1 C 85 % 1005,4 hPa 0,0 l/m 0 min 0 min 0 W/m 3,2 km/h (1 Bft) 97,83 %
23.04.2022 01:12 10,2 C 9,4 C 6,1 C 85 % 1005,3 hPa 0,0 l/m 0 min 0 min 0 W/m 3,2 km/h (1 Bft) 97,87 %
23.04.2022 01:14 10,2 C 8,9 C 6,1 C 85 % 1005,3 hPa 0,0 l/m 0 min 0 min 0 W/m 9,7 km/h (2 Bft) 95,74 %
23.04.2022 01:16 10,2 C 8,9 C 5,6 C 85 % 1005,3 hPa 0,0 l/m 0 min 0 min 0 W/m 6,4 km/h (2 Bft) 97,87 %
23.04.2022 01:18 10,1 C 8,9 C 5,6 C 85 % 1005,3 hPa 0,0 l/m 0 min 0 min 0 W/m 9,7 km/h (2 Bft) 93,62 %
23.04.2022 01:20 10,1 C 8,9 C 5,6 C 85 % 1005,3 hPa 0,0 l/m 0 min 0 min 0 W/m 6,4 km/h (2 Bft) 95,74 %
23.04.2022 01:22 10,1 C 8,9 C 5,6 C 85 % 1005,2 hPa 0,0 l/m 0 min 0 min 0 W/m 3,2 km/h (1 Bft) 95,65 %
23.04.2022 01:24 10,1 C 8,9 C 5,6 C 85 % 1005,3 hPa 0,0 l/m 0 min 0 min 0 W/m 6,4 km/h (2 Bft) 93,62 %
23.04.2022 01:26 10,1 C 8,9 C 5,6 C 85 % 1005,2 hPa 0,0 l/m 0 min 0 min 0 W/m 6,4 km/h (2 Bft) 95,74 %
23.04.2022 01:28 10,1 C 8,9 C 5,6 C 86 % 1005,2 hPa 0,0 l/m 0 min 0 min 0 W/m 6,4 km/h (2 Bft) 95,83 %
23.04.2022 01:30 10,0 C 8,9 C 5,6 C 86 % 1005,2 hPa 0,0 l/m 0 min 0 min 0 W/m 16,1 km/h (3 Bft) 95,74 %
23.04.2022 01:32 10,0 C 8,9 C 5,6 C 86 % 1005,2 hPa 0,0 l/m 0 min 0 min 0 W/m 6,4 km/h (2 Bft) 95,65 %
23.04.2022 01:34 10,0 C 8,9 C 5,6 C 86 % 1005,2 hPa 0,0 l/m 0 min 0 min 0 W/m 6,4 km/h (2 Bft) 91,49 %
23.04.2022 01:36 10,0 C 8,9 C 5,6 C 86 % 1005,1 hPa 0,0 l/m 0 min 0 min 0 W/m 9,7 km/h (2 Bft) 91,49 %
23.04.2022 01:38 9,9 C 8,9 C 5,6 C 86 % 1005,2 hPa 0,0 l/m 0 min 0 min 0 W/m 9,7 km/h (2 Bft) 95,74 %
23.04.2022 01:40 9,9 C 8,9 C 5,6 C 86 % 1005,1 hPa 0,0 l/m 0 min 0 min 0 W/m 9,7 km/h (2 Bft) 95,74 %
23.04.2022 01:42 9,9 C 8,9 C 5,6 C 86 % 1005,2 hPa 0,0 l/m 0 min 0 min 0 W/m 9,7 km/h (2 Bft) 95,74 %
23.04.2022 01:44 9,9 C 8,9 C 5,6 C 86 % 1005,2 hPa 0,0 l/m 0 min 0 min 0 W/m 6,4 km/h (2 Bft) 93,48 %
23.04.2022 01:46 9,9 C 8,9 C 5,6 C 86 % 1005,1 hPa 0,0 l/m 0 min 0 min 0 W/m 6,4 km/h (2 Bft) 93,62 %
23.04.2022 01:48 9,9 C 8,9 C 5,6 C 86 % 1005,2 hPa 0,0 l/m 0 min 0 min 0 W/m 6,4 km/h (2 Bft) 91,49 %
23.04.2022 01:50 9,8 C 8,9 C 5,6 C 86 % 1005,2 hPa 0,0 l/m 0 min 0 min 0 W/m 6,4 km/h (2 Bft) 95,74 %
23.04.2022 01:52 9,8 C 8,9 C 5,6 C 86 % 1005,1 hPa 0,0 l/m 0 min 0 min 0 W/m 6,4 km/h (2 Bft) 93,62 %
23.04.2022 01:54 9,8 C 8,9 C 5,6 C 86 % 1005,2 hPa 0,0 l/m 0 min 0 min 0 W/m 6,4 km/h (2 Bft) 95,74 %
23.04.2022 01:56 9,8 C 8,9 C 5,6 C 86 % 1005,2 hPa 0,0 l/m 0 min 0 min 0 W/m 6,4 km/h (2 Bft) 95,65 %
23.04.2022 01:58 9,8 C 8,9 C 5,6 C 87 % 1005,2 hPa 0,0 l/m 0 min 0 min 0 W/m 9,7 km/h (2 Bft) 95,74 %
23.04.2022 02:00 9,7 C 8,9 C 5,6 C 87 % 1005,2 hPa 0,0 l/m 0 min 0 min 0 W/m 9,7 km/h (2 Bft) 97,87 %
23.04.2022 02:02 9,7 C 8,9 C 5,6 C 87 % 1005,1 hPa 0,0 l/m 0 min 0 min 0 W/m 9,7 km/h (2 Bft) 95,74 %
23.04.2022 02:04 9,7 C 8,9 C 5,6 C 87 % 1005,2 hPa 0,0 l/m 0 min 0 min 0 W/m 6,4 km/h (2 Bft) 95,74 %
23.04.2022 02:06 9,7 C 8,9 C 5,6 C 87 % 1005,2 hPa 0,0 l/m 0 min 0 min 0 W/m 6,4 km/h (2 Bft) 95,65 %
23.04.2022 02:08 9,7 C 8,9 C 5,6 C 87 % 1005,2 hPa 0,0 l/m 0 min 0 min 0 W/m 3,2 km/h (1 Bft) 97,87 %
23.04.2022 02:10 9,7 C 8,9 C 5,6 C 87 % 1005,1 hPa 0,0 l/m 0 min 0 min 0 W/m 9,7 km/h (2 Bft) 95,74 %
23.04.2022 02:12 9,7 C 8,3 C 5,6 C 87 % 1005,2 hPa 0,0 l/m 0 min 0 min 0 W/m 6,4 km/h (2 Bft) 93,62 %
23.04.2022 02:14 9,6 C 8,3 C 5,6 C 87 % 1005,2 hPa 0,0 l/m 0 min 0 min 0 W/m 6,4 km/h (2 Bft) 95,74 %
23.04.2022 02:16 9,6 C 8,3 C 5,6 C 87 % 1005,2 hPa 0,0 l/m 0 min 0 min 0 W/m 6,4 km/h (2 Bft) 100,00 %
23.04.2022 02:18 9,6 C 8,3 C 5,0 C 87 % 1005,2 hPa 0,0 l/m 0 min 0 min 0 W/m 3,2 km/h (1 Bft) 100,00 %
23.04.2022 02:20 9,6 C 8,3 C 5,0 C 87 % 1005,2 hPa 0,0 l/m 0 min 0 min 0 W/m 3,2 km/h (1 Bft) 100,00 %
23.04.2022 02:22 9,6 C 8,3 C 5,0 C 87 % 1005,1 hPa 0,0 l/m 0 min 0 min 0 W/m 6,4 km/h (2 Bft) 97,87 %
23.04.2022 02:24 9,5 C 8,3 C 5,0 C 87 % 1005,2 hPa 0,0 l/m 0 min 0 min 0 W/m 6,4 km/h (2 Bft) 97,87 %
23.04.2022 02:26 9,4 C 8,3 C 5,0 C 87 % 1005,2 hPa 0,0 l/m 0 min 0 min 0 W/m 3,2 km/h (1 Bft) 100,00 %
23.04.2022 02:28 9,4 C 8,3 C 5,0 C 87 % 1005,3 hPa 0,0 l/m 0 min 0 min 0 W/m 3,2 km/h (1 Bft) 100,00 %
23.04.2022 02:30 9,4 C 8,3 C 5,0 C 87 % 1005,2 hPa 0,0 l/m 0 min 0 min 0 W/m 3,2 km/h (1 Bft) 97,83 %
23.04.2022 02:32 9,4 C 8,3 C 5,0 C 87 % 1005,2 hPa 0,0 l/m 0 min 0 min 0 W/m 3,2 km/h (1 Bft) 100,00 %
23.04.2022 02:34 9,3 C 7,8 C 5,0 C 87 % 1005,2 hPa 0,0 l/m 0 min 0 min 0 W/m 3,2 km/h (1 Bft) 100,00 %
23.04.2022 02:36 9,3 C 7,8 C 5,0 C 87 % 1005,2 hPa 0,0 l/m 0 min 0 min 0 W/m 6,4 km/h (2 Bft) 100,00 %
23.04.2022 02:38 9,3 C 7,8 C 5,0 C 87 % 1005,2 hPa 0,0 l/m 0 min 0 min 0 W/m 3,2 km/h (1 Bft) 95,74 %
23.04.2022 02:40 9,2 C 7,8 C 5,0 C 87 % 1005,2 hPa 0,0 l/m 0 min 0 min 0 W/m 3,2 km/h (1 Bft) 100,00 %
23.04.2022 02:42 9,2 C 7,8 C 5,0 C 88 % 1005,2 hPa 0,0 l/m 0 min 0 min 0 W/m 6,4 km/h (2 Bft) 100,00 %
23.04.2022 02:44 9,2 C 7,8 C 5,0 C 88 % 1005,2 hPa 0,0 l/m 0 min 0 min 0 W/m 3,2 km/h (1 Bft) 100,00 %
23.04.2022 02:46 9,1 C 7,8 C 4,4 C 88 % 1005,2 hPa 0,0 l/m 0 min 0 min 0 W/m 3,2 km/h (1 Bft) 100,00 %
23.04.2022 02:48 9,1 C 7,8 C 5,0 C 88 % 1005,2 hPa 0,0 l/m 0 min 0 min 0 W/m 3,2 km/h (1 Bft) 100,00 %
23.04.2022 02:50 9,0 C 7,8 C 4,4 C 88 % 1005,2 hPa 0,0 l/m 0 min 0 min 0 W/m 6,4 km/h (2 Bft) 100,00 %
23.04.2022 02:52 9,0 C 7,8 C 5,0 C 88 % 1005,2 hPa 0,0 l/m 0 min 0 min 0 W/m 6,4 km/h (2 Bft) 100,00 %
23.04.2022 02:54 8,9 C 7,8 C 4,4 C 88 % 1005,2 hPa 0,0 l/m 0 min 0 min 0 W/m 3,2 km/h (1 Bft) 100,00 %
23.04.2022 02:56 8,9 C 7,8 C 4,4 C 88 % 1005,2 hPa 0,0 l/m 0 min 0 min 0 W/m 6,4 km/h (2 Bft) 100,00 %
23.04.2022 02:58 8,9 C 7,8 C 4,4 C 88 % 1005,2 hPa 0,0 l/m 0 min 0 min 0 W/m 6,4 km/h (2 Bft) 100,00 %
23.04.2022 03:00 8,9 C 7,8 C 4,4 C 88 % 1005,1 hPa 0,0 l/m 0 min 0 min 0 W/m 6,4 km/h (2 Bft) 100,00 %
23.04.2022 03:02 8,8 C 7,8 C 4,4 C 88 % 1005,1 hPa 0,0 l/m 0 min 0 min 0 W/m 6,4 km/h (2 Bft) 97,92 %
23.04.2022 03:04 8,8 C 7,8 C 4,4 C 88 % 1005,1 hPa 0,0 l/m 0 min 0 min 0 W/m 6,4 km/h (2 Bft) 100,00 %
23.04.2022 03:06 8,8 C 7,8 C 4,4 C 88 % 1005,1 hPa 0,0 l/m 0 min 0 min 0 W/m 6,4 km/h (2 Bft) 100,00 %
23.04.2022 03:08 8,8 C 7,8 C 4,4 C 89 % 1005,2 hPa 0,0 l/m 0 min 0 min 0 W/m 6,4 km/h (2 Bft) 100,00 %
23.04.2022 03:10 8,8 C 7,8 C 4,4 C 89 % 1005,1 hPa 0,0 l/m 0 min 0 min 0 W/m 6,4 km/h (2 Bft) 100,00 %
23.04.2022 03:12 8,8 C 7,8 C 4,4 C 89 % 1005,2 hPa 0,0 l/m 0 min 0 min 0 W/m 6,4 km/h (2 Bft) 97,87 %
23.04.2022 03:14 8,8 C 7,8 C 4,4 C 89 % 1005,1 hPa 0,0 l/m 0 min 0 min 0 W/m 9,7 km/h (2 Bft) 100,00 %
23.04.2022 03:16 8,7 C 7,8 C 4,4 C 89 % 1005,2 hPa 0,0 l/m 0 min 0 min 0 W/m 3,2 km/h (1 Bft) 100,00 %
23.04.2022 03:18 8,7 C 7,8 C 4,4 C 89 % 1005,2 hPa 0,0 l/m 0 min 0 min 0 W/m 6,4 km/h (2 Bft) 95,74 %
23.04.2022 03:20 8,7 C 7,8 C 4,4 C 89 % 1005,1 hPa 0,0 l/m 0 min 0 min 0 W/m 6,4 km/h (2 Bft) 100,00 %
23.04.2022 03:22 8,7 C 7,8 C 4,4 C 89 % 1005,1 hPa 0,0 l/m 0 min 0 min 0 W/m 6,4 km/h (2 Bft) 100,00 %
23.04.2022 03:24 8,7 C 7,8 C 4,4 C 89 % 1005,2 hPa 0,0 l/m 0 min 0 min 0 W/m 6,4 km/h (2 Bft) 100,00 %
23.04.2022 03:26 8,7 C 7,8 C 4,4 C 89 % 1005,1 hPa 0,0 l/m 0 min 0 min 0 W/m 6,4 km/h (2 Bft) 97,87 %
23.04.2022 03:28 8,7 C 7,8 C 4,4 C 90 % 1005,2 hPa 0,0 l/m 0 min 0 min 0 W/m 6,4 km/h (2 Bft) 95,65 %
23.04.2022 03:30 8,7 C 7,8 C 4,4 C 90 % 1005,2 hPa 0,0 l/m 0 min 0 min 0 W/m 3,2 km/h (1 Bft) 95,74 %
23.04.2022 03:32 8,7 C 7,8 C 4,4 C 90 % 1005,2 hPa 0,0 l/m 0 min 0 min 0 W/m 3,2 km/h (1 Bft) 94,44 %
23.04.2022 03:34 8,7 C 7,8 C 4,4 C 90 % 1005,2 hPa 0,0 l/m 0 min 0 min 0 W/m 6,4 km/h (2 Bft) 95,74 %
23.04.2022 03:36 8,7 C 7,8 C 4,4 C 90 % 1005,2 hPa 0,0 l/m 0 min 0 min 0 W/m 6,4 km/h (2 Bft) 95,74 %
23.04.2022 03:38 8,6 C 7,8 C 4,4 C 90 % 1005,2 hPa 0,0 l/m 0 min 0 min 0 W/m 6,4 km/h (2 Bft) 95,74 %
23.04.2022 03:40 8,6 C 7,8 C 4,4 C 90 % 1005,2 hPa 0,0 l/m 0 min 0 min 0 W/m 6,4 km/h (2 Bft) 95,74 %
23.04.2022 03:42 8,6 C 7,8 C 4,4 C 90 % 1005,2 hPa 0,0 l/m 0 min 0 min 0 W/m 6,4 km/h (2 Bft) 95,65 %
23.04.2022 03:44 8,6 C 7,8 C 4,4 C 90 % 1005,2 hPa 0,0 l/m 0 min 0 min 0 W/m 6,4 km/h (2 Bft) 95,74 %
23.04.2022 03:46 8,6 C 7,8 C 4,4 C 90 % 1005,2 hPa 0,0 l/m 0 min 0 min 0 W/m 6,4 km/h (2 Bft) 95,74 %
23.04.2022 03:48 8,6 C 7,8 C 4,4 C 90 % 1005,2 hPa 0,0 l/m 0 min 0 min 0 W/m 6,4 km/h (2 Bft) 93,62 %
23.04.2022 03:50 8,6 C 7,2 C 4,4 C 90 % 1005,3 hPa 0,0 l/m 0 min 0 min 0 W/m 6,4 km/h (2 Bft) 95,74 %
23.04.2022 03:52 8,6 C 7,2 C 4,4 C 90 % 1005,3 hPa 0,0 l/m 0 min 0 min 0 W/m 6,4 km/h (2 Bft) 95,74 %
23.04.2022 03:54 8,5 C 7,2 C 4,4 C 90 % 1005,2 hPa 0,0 l/m 0 min 0 min 0 W/m 3,2 km/h (1 Bft) 95,65 %
23.04.2022 03:56 8,5 C 7,8 C 4,4 C 90 % 1005,3 hPa 0,0 l/m 0 min 0 min 0 W/m 6,4 km/h (2 Bft) 97,87 %
23.04.2022 03:58 8,5 C 7,8 C 4,4 C 90 % 1005,3 hPa 0,0 l/m 0 min 0 min 0 W/m 9,7 km/h (2 Bft) 93,62 %
23.04.2022 04:00 8,5 C 7,8 C 4,4 C 90 % 1005,2 hPa 0,0 l/m 0 min 0 min 0 W/m 6,4 km/h (2 Bft) 97,87 %
23.04.2022 04:02 8,5 C 7,8 C 4,4 C 90 % 1005,3 hPa 0,0 l/m 0 min 0 min 0 W/m 3,2 km/h (1 Bft) 90,91 %
23.04.2022 04:04 8,5 C 7,8 C 4,4 C 90 % 1005,3 hPa 0,0 l/m 0 min 0 min 0 W/m 6,4 km/h (2 Bft) 100,00 %
23.04.2022 04:06 8,5 C 7,8 C 4,4 C 91 % 1005,3 hPa 0,0 l/m 0 min 0 min 0 W/m 6,4 km/h (2 Bft) 100,00 %
23.04.2022 04:08 8,5 C 7,8 C 4,4 C 90 % 1005,3 hPa 0,0 l/m 0 min 0 min 0 W/m 6,4 km/h (2 Bft) 100,00 %
23.04.2022 04:10 8,5 C 7,8 C 4,4 C 90 % 1005,3 hPa 0,0 l/m 0 min 0 min 0 W/m 6,4 km/h (2 Bft) 100,00 %
23.04.2022 04:12 8,5 C 7,8 C 4,4 C 90 % 1005,3 hPa 0,0 l/m 0 min 0 min 0 W/m 9,7 km/h (2 Bft) 100,00 %
23.04.2022 04:14 8,5 C 7,8 C 4,4 C 90 % 1005,3 hPa 0,0 l/m 0 min 0 min 0 W/m 3,2 km/h (1 Bft) 100,00 %
23.04.2022 04:16 8,5 C 7,2 C 4,4 C 91 % 1005,3 hPa 0,0 l/m 0 min 0 min 0 W/m 6,4 km/h (2 Bft) 100,00 %
23.04.2022 04:18 8,5 C 7,2 C 4,4 C 91 % 1005,3 hPa 0,0 l/m 0 min 0 min 0 W/m 6,4 km/h (2 Bft) 100,00 %
23.04.2022 04:20 8,5 C 7,2 C 4,4 C 91 % 1005,2 hPa 0,0 l/m 0 min 0 min 0 W/m 9,7 km/h (2 Bft) 97,87 %
23.04.2022 04:22 8,4 C 7,2 C 4,4 C 91 % 1005,2 hPa 0,0 l/m 0 min 0 min 0 W/m 6,4 km/h (2 Bft) 100,00 %
23.04.2022 04:24 8,4 C 7,2 C 4,4 C 91 % 1005,2 hPa 0,0 l/m 0 min 0 min 0 W/m 6,4 km/h (2 Bft) 100,00 %
23.04.2022 04:26 8,4 C 7,2 C 4,4 C 91 % 1005,2 hPa 0,0 l/m 0 min 0 min 0 W/m 3,2 km/h (1 Bft) 100,00 %
23.04.2022 04:28 8,4 C 7,2 C 4,4 C 91 % 1005,3 hPa 0,0 l/m 0 min 0 min 0 W/m 6,4 km/h (2 Bft) 100,00 %
23.04.2022 04:30 8,4 C 7,2 C 4,4 C 91 % 1005,3 hPa 0,0 l/m 0 min 0 min 0 W/m 6,4 km/h (2 Bft) 97,87 %
23.04.2022 04:32 8,4 C 7,2 C 4,4 C 91 % 1005,2 hPa 0,0 l/m 0 min 0 min 0 W/m 3,2 km/h (1 Bft) 97,87 %
23.04.2022 04:34 8,4 C 7,2 C 4,4 C 91 % 1005,2 hPa 0,0 l/m 0 min 0 min 0 W/m 6,4 km/h (2 Bft) 100,00 %
23.04.2022 04:36 8,3 C 7,2 C 4,4 C 91 % 1005,2 hPa 0,0 l/m 0 min 0 min 0 W/m 6,4 km/h (2 Bft) 97,87 %
23.04.2022 04:38 8,3 C 7,2 C 4,4 C 91 % 1005,2 hPa 0,0 l/m 0 min 0 min 0 W/m 6,4 km/h (2 Bft) 97,83 %
23.04.2022 04:40 8,3 C 7,2 C 4,4 C 91 % 1005,2 hPa 0,0 l/m 0 min 0 min 0 W/m 6,4 km/h (2 Bft) 97,87 %
23.04.2022 04:42 8,3 C 7,2 C 4,4 C 91 % 1005,2 hPa 0,0 l/m 0 min 0 min 0 W/m 6,4 km/h (2 Bft) 97,87 %
23.04.2022 04:44 8,3 C 7,2 C 4,4 C 91 % 1005,2 hPa 0,0 l/m 0 min 0 min 0 W/m 6,4 km/h (2 Bft) 95,74 %
23.04.2022 04:46 8,3 C 7,2 C 4,4 C 91 % 1005,2 hPa 0,0 l/m 0 min 0 min 0 W/m 6,4 km/h (2 Bft) 97,87 %
23.04.2022 04:48 8,3 C 7,2 C 4,4 C 91 % 1005,2 hPa 0,0 l/m 0 min 0 min 0 W/m 6,4 km/h (2 Bft) 97,87 %
23.04.2022 04:50 8,2 C 7,2 C 4,4 C 91 % 1005,2 hPa 0,0 l/m 0 min 0 min 0 W/m 6,4 km/h (2 Bft) 95,65 %
23.04.2022 04:52 8,2 C 7,2 C 4,4 C 91 % 1005,1 hPa 0,0 l/m 0 min 0 min 0 W/m 6,4 km/h (2 Bft) 95,74 %
23.04.2022 04:54 8,2 C 7,2 C 4,4 C 91 % 1005,1 hPa 0,0 l/m 0 min 0 min 0 W/m 6,4 km/h (2 Bft) 97,87 %
23.04.2022 04:56 8,2 C 7,2 C 3,9 C 91 % 1005,1 hPa 0,0 l/m 0 min 0 min 0 W/m 6,4 km/h (2 Bft) 95,74 %
23.04.2022 04:58 8,2 C 7,2 C 3,9 C 91 % 1005,2 hPa 0,0 l/m 0 min 0 min 0 W/m 6,4 km/h (2 Bft) 97,87 %
23.04.2022 05:00 8,2 C 7,2 C 3,9 C 91 % 1005,1 hPa 0,0 l/m 0 min 0 min 0 W/m 6,4 km/h (2 Bft) 97,87 %
23.04.2022 05:02 8,2 C 7,2 C 3,9 C 91 % 1005,1 hPa 0,0 l/m 0 min 0 min 0 W/m 9,7 km/h (2 Bft) 93,48 %
23.04.2022 05:04 8,2 C 7,2 C 4,4 C 91 % 1005,1 hPa 0,0 l/m 0 min 0 min 0 W/m 6,4 km/h (2 Bft) 95,74 %
23.04.2022 05:06 8,2 C 7,2 C 3,9 C 91 % 1005,1 hPa 0,0 l/m 0 min 0 min 0 W/m 6,4 km/h (2 Bft) 97,87 %
23.04.2022 05:08 8,2 C 7,2 C 3,9 C 92 % 1005,1 hPa 0,0 l/m 0 min 0 min 0 W/m 6,4 km/h (2 Bft) 97,87 %
23.04.2022 05:10 8,1 C 7,2 C 3,9 C 92 % 1005,1 hPa 0,0 l/m 0 min 0 min 0 W/m 6,4 km/h (2 Bft) 95,74 %
23.04.2022 05:12 8,1 C 7,2 C 3,9 C 92 % 1005,0 hPa 0,0 l/m 0 min 0 min 0 W/m 6,4 km/h (2 Bft) 97,87 %
23.04.2022 05:14 8,1 C 7,2 C 3,9 C 92 % 1005,1 hPa 0,0 l/m 0 min 0 min 0 W/m 6,4 km/h (2 Bft) 97,83 %
23.04.2022 05:16 8,1 C 7,2 C 3,9 C 92 % 1005,0 hPa 0,0 l/m 0 min 0 min 0 W/m 6,4 km/h (2 Bft) 95,74 %
23.04.2022 05:18 8,1 C 7,2 C 3,9 C 92 % 1005,0 hPa 0,0 l/m 0 min 0 min 0 W/m 6,4 km/h (2 Bft) 93,62 %
23.04.2022 05:20 8,1 C 7,2 C 3,9 C 92 % 1005,1 hPa 0,0 l/m 0 min 0 min 0 W/m 6,4 km/h (2 Bft) 95,74 %
23.04.2022 05:22 8,1 C 7,2 C 3,9 C 92 % 1005,0 hPa 0,0 l/m 0 min 0 min 0 W/m 3,2 km/h (1 Bft) 95,74 %
23.04.2022 05:24 8,1 C 7,2 C 3,9 C 92 % 1005,1 hPa 0,0 l/m 0 min 0 min 0 W/m 6,4 km/h (2 Bft) 95,74 %
23.04.2022 05:26 8,1 C 7,2 C 3,9 C 92 % 1005,1 hPa 0,0 l/m 0 min 0 min 0 W/m 6,4 km/h (2 Bft) 97,83 %
23.04.2022 05:28 8,1 C 7,2 C 3,9 C 92 % 1005,1 hPa 0,0 l/m 0 min 0 min 0 W/m 6,4 km/h (2 Bft) 97,87 %
23.04.2022 05:30 8,1 C 7,2 C 3,9 C 92 % 1005,1 hPa 0,0 l/m 0 min 0 min 0 W/m 6,4 km/h (2 Bft) 97,87 %
23.04.2022 05:32 8,1 C 7,2 C 3,9 C 92 % 1005,1 hPa 0,0 l/m 0 min 0 min 0 W/m 6,4 km/h (2 Bft) 95,74 %
23.04.2022 05:34 8,1 C 7,2 C 3,9 C 92 % 1005,1 hPa 0,0 l/m 0 min 0 min 0 W/m 6,4 km/h (2 Bft) 95,74 %
23.04.2022 05:36 8,1 C 7,2 C 3,9 C 92 % 1005,0 hPa 0,0 l/m 0 min 0 min 0 W/m 6,4 km/h (2 Bft) 97,83 %
23.04.2022 05:38 8,1 C 7,2 C 3,9 C 92 % 1005,0 hPa 0,0 l/m 0 min 0 min 0 W/m 9,7 km/h (2 Bft) 97,87 %
23.04.2022 05:40 8,1 C 7,2 C 3,9 C 92 % 1005,0 hPa 0,0 l/m 0 min 0 min 0 W/m 9,7 km/h (2 Bft) 95,74 %
23.04.2022 05:42 8,1 C 7,2 C 3,9 C 92 % 1005,0 hPa 0,0 l/m 0 min 0 min 0 W/m 6,4 km/h (2 Bft) 97,87 %
23.04.2022 05:44 8,1 C 7,2 C 3,9 C 92 % 1005,0 hPa 0,0 l/m 0 min 0 min 0 W/m 6,4 km/h (2 Bft) 95,74 %
23.04.2022 05:46 8,0 C 6,7 C 3,9 C 92 % 1005,0 hPa 0,0 l/m 0 min 0 min 0 W/m 3,2 km/h (1 Bft) 95,74 %
23.04.2022 05:48 8,0 C 6,7 C 3,9 C 93 % 1005,0 hPa 0,0 l/m 0 min 0 min 0 W/m 3,2 km/h (1 Bft) 97,83 %
23.04.2022 05:50 8,0 C 6,7 C 3,9 C 93 % 1004,9 hPa 0,0 l/m 0 min 0 min 0 W/m 6,4 km/h (2 Bft) 97,87 %
23.04.2022 05:52 7,9 C 6,7 C 3,9 C 93 % 1005,0 hPa 0,0 l/m 0 min 0 min 0 W/m 6,4 km/h (2 Bft) 97,87 %
23.04.2022 05:54 8,0 C 6,7 C 3,9 C 93 % 1004,9 hPa 0,0 l/m 0 min 0 min 0 W/m 6,4 km/h (2 Bft) 97,87 %
23.04.2022 05:56 8,0 C 6,7 C 3,9 C 93 % 1004,9 hPa 0,0 l/m 0 min 0 min 0 W/m 6,4 km/h (2 Bft) 97,87 %
23.04.2022 05:58 8,0 C 7,2 C 3,9 C 93 % 1004,9 hPa 0,0 l/m 0 min 0 min 0 W/m 9,7 km/h (2 Bft) 97,87 %
23.04.2022 06:00 8,0 C 7,2 C 3,9 C 93 % 1004,9 hPa 0,0 l/m 0 min 0 min 0 W/m 3,2 km/h (1 Bft) 97,83 %
23.04.2022 06:02 8,0 C 7,2 C 3,9 C 93 % 1004,9 hPa 0,0 l/m 0 min 0 min 0 W/m 9,7 km/h (2 Bft) 97,87 %
23.04.2022 06:04 8,0 C 7,2 C 3,9 C 93 % 1004,9 hPa 0,0 l/m 0 min 0 min 0 W/m 9,7 km/h (2 Bft) 95,74 %
23.04.2022 06:08 8,0 C 7,2 C 3,9 C 93 % 1004,9 hPa 0,0 l/m 0 min 0 min 0 W/m 6,4 km/h (2 Bft) 97,87 %
23.04.2022 06:10 8,1 C 7,2 C 3,9 C 93 % 1004,9 hPa 0,0 l/m 0 min 0 min 0 W/m 9,7 km/h (2 Bft) 95,74 %
23.04.2022 06:12 8,1 C 7,2 C 3,9 C 93 % 1004,8 hPa 0,0 l/m 0 min 0 min 0 W/m 9,7 km/h (2 Bft) 97,83 %
23.04.2022 06:14 8,1 C 7,2 C 3,9 C 94 % 1004,9 hPa 0,0 l/m 0 min 0 min 0 W/m 9,7 km/h (2 Bft) 97,87 %
23.04.2022 06:16 8,1 C 7,2 C 3,9 C 94 % 1004,9 hPa 0,0 l/m 0 min 0 min 0 W/m 6,4 km/h (2 Bft) 97,87 %
23.04.2022 06:18 8,1 C 7,2 C 3,9 C 94 % 1004,9 hPa 0,0 l/m 0 min 0 min 0 W/m 6,4 km/h (2 Bft) 97,87 %
23.04.2022 06:20 8,1 C 7,2 C 3,9 C 94 % 1004,8 hPa 0,0 l/m 0 min 0 min 0 W/m 6,4 km/h (2 Bft) 97,87 %
23.04.2022 06:22 8,1 C 7,2 C 3,9 C 94 % 1004,8 hPa 0,0 l/m 0 min 0 min 0 W/m 12,9 km/h (3 Bft) 97,87 %
23.04.2022 06:24 8,1 C 7,2 C 3,9 C 94 % 1004,9 hPa 0,0 l/m 0 min 0 min 0 W/m 9,7 km/h (2 Bft) 100,00 %
23.04.2022 06:26 8,1 C 7,2 C 3,9 C 94 % 1004,9 hPa 0,0 l/m 0 min 0 min 0 W/m 9,7 km/h (2 Bft) 100,00 %
23.04.2022 06:28 8,1 C 7,2 C 3,9 C 94 % 1004,9 hPa 0,0 l/m 0 min 0 min 5 W/m 6,4 km/h (2 Bft) 100,00 %
23.04.2022 06:30 8,1 C 7,2 C 3,9 C 94 % 1004,9 hPa 0,0 l/m 0 min 0 min 5 W/m 9,7 km/h (2 Bft) 100,00 %
23.04.2022 06:32 8,1 C 7,2 C 3,9 C 94 % 1004,8 hPa 0,0 l/m 0 min 0 min 6 W/m 9,7 km/h (2 Bft) 100,00 %
23.04.2022 06:34 8,1 C 7,2 C 3,9 C 94 % 1004,8 hPa 0,0 l/m 0 min 0 min 7 W/m 6,4 km/h (2 Bft) 100,00 %
23.04.2022 06:36 8,1 C 7,2 C 3,9 C 94 % 1004,8 hPa 0,0 l/m 0 min 0 min 8 W/m 6,4 km/h (2 Bft) 100,00 %
23.04.2022 06:38 8,1 C 7,2 C 3,9 C 94 % 1004,7 hPa 0,0 l/m 0 min 0 min 9 W/m 16,1 km/h (3 Bft) 100,00 %
23.04.2022 06:40 8,1 C 7,2 C 3,9 C 94 % 1004,8 hPa 0,0 l/m 0 min 0 min 10 W/m 9,7 km/h (2 Bft) 100,00 %
23.04.2022 06:42 8,1 C 7,2 C 3,9 C 94 % 1004,8 hPa 0,0 l/m 0 min 0 min 11 W/m 9,7 km/h (2 Bft) 100,00 %
23.04.2022 06:44 8,1 C 7,2 C 3,9 C 94 % 1004,8 hPa 0,0 l/m 0 min 0 min 12 W/m 6,4 km/h (2 Bft) 100,00 %
23.04.2022 06:46 8,1 C 7,2 C 4,4 C 94 % 1004,8 hPa 0,0 l/m 0 min 0 min 13 W/m 6,4 km/h (2 Bft) 97,83 %
23.04.2022 06:48 8,1 C 7,2 C 4,4 C 94 % 1004,8 hPa 0,0 l/m 0 min 0 min 15 W/m 6,4 km/h (2 Bft) 100,00 %
23.04.2022 06:50 8,1 C 7,2 C 4,4 C 94 % 1004,8 hPa 0,0 l/m 0 min 0 min 16 W/m 9,7 km/h (2 Bft) 100,00 %
23.04.2022 06:52 8,1 C 7,2 C 4,4 C 94 % 1004,8 hPa 0,0 l/m 0 min 0 min 17 W/m 12,9 km/h (3 Bft) 100,00 %
23.04.2022 06:54 8,1 C 7,2 C 4,4 C 94 % 1004,8 hPa 0,0 l/m 0 min 0 min 18 W/m 6,4 km/h (2 Bft) 97,87 %
23.04.2022 06:56 8,1 C 7,2 C 4,4 C 94 % 1004,8 hPa 0,0 l/m 0 min 0 min 19 W/m 9,7 km/h (2 Bft) 100,00 %
23.04.2022 06:58 8,2 C 7,2 C 4,4 C 94 % 1004,9 hPa 0,0 l/m 0 min 0 min 20 W/m 12,9 km/h (3 Bft) 100,00 %
23.04.2022 07:00 8,2 C 7,8 C 4,4 C 94 % 1004,9 hPa 0,0 l/m 0 min 0 min 21 W/m 9,7 km/h (2 Bft) 100,00 %
23.04.2022 07:02 8,2 C 7,8 C 4,4 C 95 % 1004,8 hPa 0,0 l/m 0 min 0 min 23 W/m 12,9 km/h (3 Bft) 97,87 %
23.04.2022 07:04 8,3 C 7,8 C 4,4 C 95 % 1004,9 hPa 0,0 l/m 0 min 0 min 24 W/m 6,4 km/h (2 Bft) 97,87 %
23.04.2022 07:06 8,3 C 7,8 C 4,4 C 95 % 1004,8 hPa 0,0 l/m 0 min 0 min 25 W/m 9,7 km/h (2 Bft) 97,87 %
23.04.2022 07:08 8,3 C 7,8 C 4,4 C 95 % 1004,9 hPa 0,0 l/m 0 min 0 min 26 W/m 6,4 km/h (2 Bft) 97,87 %
23.04.2022 07:10 8,4 C 7,8 C 4,4 C 95 % 1004,9 hPa 0,0 l/m 0 min 0 min 27 W/m 6,4 km/h (2 Bft) 97,83 %
23.04.2022 07:12 8,4 C 7,8 C 4,4 C 95 % 1004,9 hPa 0,0 l/m 0 min 0 min 29 W/m 6,4 km/h (2 Bft) 95,74 %
23.04.2022 07:14 8,4 C 7,8 C 4,4 C 95 % 1004,9 hPa 0,0 l/m 0 min 0 min 30 W/m 6,4 km/h (2 Bft) 97,87 %
23.04.2022 07:16 8,4 C 7,8 C 4,4 C 95 % 1004,9 hPa 0,0 l/m 0 min 0 min 32 W/m 12,9 km/h (3 Bft) 97,87 %
23.04.2022 07:18 8,5 C 7,8 C 5,0 C 95 % 1004,9 hPa 0,0 l/m 0 min 0 min 33 W/m 6,4 km/h (2 Bft) 95,74 %
23.04.2022 07:20 8,6 C 7,8 C 5,0 C 95 % 1004,9 hPa 0,0 l/m 0 min 0 min 35 W/m 9,7 km/h (2 Bft) 97,87 %
23.04.2022 07:22 8,6 C 8,3 C 5,0 C 95 % 1004,8 hPa 0,0 l/m 0 min 0 min 35 W/m 9,7 km/h (2 Bft) 97,83 %
23.04.2022 07:24 8,6 C 8,3 C 5,0 C 95 % 1004,9 hPa 0,0 l/m 0 min 0 min 37 W/m 12,9 km/h (3 Bft) 97,87 %
23.04.2022 07:26 8,7 C 8,3 C 5,0 C 95 % 1004,9 hPa 0,0 l/m 0 min 0 min 39 W/m 9,7 km/h (2 Bft) 95,74 %
23.04.2022 07:28 8,7 C 8,3 C 5,0 C 95 % 1004,9 hPa 0,0 l/m 0 min 0 min 40 W/m 12,9 km/h (3 Bft) 97,87 %
23.04.2022 07:30 8,7 C 8,3 C 5,0 C 95 % 1004,9 hPa 0,0 l/m 0 min 0 min 40 W/m 16,1 km/h (3 Bft) 97,87 %
23.04.2022 07:32 8,8 C 8,3 C 5,0 C 95 % 1004,8 hPa 0,0 l/m 0 min 0 min 41 W/m 6,4 km/h (2 Bft) 97,87 %
23.04.2022 07:34 8,8 C 8,3 C 5,0 C 95 % 1004,8 hPa 0,0 l/m 0 min 0 min 42 W/m 16,1 km/h (3 Bft) 97,83 %
23.04.2022 07:36 8,8 C 8,3 C 5,0 C 95 % 1004,8 hPa 0,0 l/m 0 min 0 min 43 W/m 9,7 km/h (2 Bft) 97,87 %
23.04.2022 07:38 8,8 C 8,3 C 5,0 C 95 % 1004,8 hPa 0,0 l/m 0 min 0 min 44 W/m 12,9 km/h (3 Bft) 95,74 %
23.04.2022 07:40 8,9 C 8,3 C 5,0 C 95 % 1004,7 hPa 0,0 l/m 0 min 0 min 46 W/m 6,4 km/h (2 Bft) 97,87 %
23.04.2022 07:42 8,9 C 8,3 C 5,0 C 95 % 1004,8 hPa 0,0 l/m 0 min 0 min 48 W/m 9,7 km/h (2 Bft) 97,87 %
23.04.2022 07:44 8,9 C 8,9 C 5,6 C 95 % 1004,7 hPa 0,0 l/m 0 min 0 min 49 W/m 12,9 km/h (3 Bft) 97,87 %
23.04.2022 07:46 9,0 C 8,9 C 5,6 C 95 % 1004,7 hPa 0,0 l/m 0 min 0 min 50 W/m 16,1 km/h (3 Bft) 97,83 %
23.04.2022 07:48 9,0 C 8,9 C 5,6 C 95 % 1004,8 hPa 0,0 l/m 0 min 0 min 51 W/m 9,7 km/h (2 Bft) 97,87 %
23.04.2022 07:50 9,1 C 8,9 C 5,6 C 95 % 1004,8 hPa 0,0 l/m 0 min 0 min 51 W/m 12,9 km/h (3 Bft) 97,87 %
23.04.2022 07:52 9,1 C 8,9 C 5,6 C 95 % 1004,7 hPa 0,0 l/m 0 min 0 min 53 W/m 12,9 km/h (3 Bft) 95,74 %
23.04.2022 07:54 9,2 C 8,9 C 5,6 C 95 % 1004,7 hPa 0,0 l/m 0 min 0 min 54 W/m 9,7 km/h (2 Bft) 95,74 %
23.04.2022 07:56 9,2 C 8,9 C 5,6 C 95 % 1004,7 hPa 0,0 l/m 0 min 0 min 49 W/m 12,9 km/h (3 Bft) 95,74 %
23.04.2022 07:58 9,3 C 8,9 C 5,6 C 95 % 1004,6 hPa 0,0 l/m 0 min 0 min 47 W/m 6,4 km/h (2 Bft) 97,83 %
23.04.2022 08:00 9,3 C 9,4 C 5,6 C 95 % 1004,7 hPa 0,0 l/m 0 min 0 min 44 W/m 12,9 km/h (3 Bft) 97,87 %
23.04.2022 08:02 9,3 C 9,4 C 5,6 C 94 % 1004,7 hPa 0,0 l/m 0 min 0 min 50 W/m 12,9 km/h (3 Bft) 95,83 %
23.04.2022 08:04 9,4 C 9,4 C 6,1 C 95 % 1004,7 hPa 0,0 l/m 0 min 0 min 57 W/m 12,9 km/h (3 Bft) 97,87 %
23.04.2022 08:06 9,4 C 9,4 C 6,1 C 95 % 1004,8 hPa 0,0 l/m 0 min 0 min 58 W/m 9,7 km/h (2 Bft) 95,74 %
23.04.2022 08:08 9,5 C 9,4 C 6,1 C 94 % 1004,7 hPa 0,0 l/m 0 min 0 min 62 W/m 16,1 km/h (3 Bft) 97,83 %
23.04.2022 08:10 9,6 C 9,4 C 6,1 C 94 % 1004,8 hPa 0,0 l/m 0 min 0 min 62 W/m 16,1 km/h (3 Bft) 97,87 %
23.04.2022 08:12 9,6 C 9,4 C 6,1 C 94 % 1004,8 hPa 0,0 l/m 0 min 0 min 63 W/m 16,1 km/h (3 Bft) 93,62 %
23.04.2022 08:14 9,7 C 9,4 C 6,1 C 94 % 1004,8 hPa 0,0 l/m 0 min 0 min 65 W/m 16,1 km/h (3 Bft) 100,00 %
23.04.2022 08:16 9,8 C 10,0 C 6,1 C 94 % 1004,8 hPa 0,0 l/m 0 min 0 min 68 W/m 12,9 km/h (3 Bft) 95,74 %
23.04.2022 08:18 9,8 C 10,0 C 6,1 C 94 % 1004,8 hPa 0,0 l/m 0 min 0 min 69 W/m 6,4 km/h (2 Bft) 47,62 %
23.04.2022 08:20 9,9 C 10,0 C 6,7 C 94 % 1004,8 hPa 0,0 l/m 0 min 0 min 69 W/m 9,7 km/h (2 Bft) 95,65 %
23.04.2022 08:22 9,9 C 10,0 C 6,7 C 94 % 1004,8 hPa 0,0 l/m 0 min 0 min 69 W/m 9,7 km/h (2 Bft) 95,74 %
23.04.2022 08:24 10,1 C 10,0 C 6,7 C 94 % 1004,7 hPa 0,0 l/m 0 min 0 min 71 W/m 9,7 km/h (2 Bft) 97,87 %
23.04.2022 08:26 10,1 C 10,0 C 6,7 C 93 % 1004,8 hPa 0,0 l/m 0 min 0 min 75 W/m 6,4 km/h (2 Bft) 97,87 %
23.04.2022 08:28 10,2 C 10,0 C 6,7 C 93 % 1004,8 hPa 0,0 l/m 0 min 0 min 77 W/m 9,7 km/h (2 Bft) 97,87 %
23.04.2022 08:30 10,2 C 10,6 C 6,7 C 93 % 1004,7 hPa 0,0 l/m 0 min 0 min 77 W/m 9,7 km/h (2 Bft) 95,74 %
23.04.2022 08:32 10,3 C 10,6 C 6,7 C 93 % 1004,7 hPa 0,0 l/m 0 min 0 min 78 W/m 12,9 km/h (3 Bft) 95,65 %
23.04.2022 08:34 10,4 C 10,6 C 7,2 C 93 % 1004,8 hPa 0,0 l/m 0 min 0 min 80 W/m 12,9 km/h (3 Bft) 97,87 %
23.04.2022 08:36 10,4 C 10,6 C 7,2 C 93 % 1004,7 hPa 0,0 l/m 0 min 0 min 95 W/m 9,7 km/h (2 Bft) 97,87 %
23.04.2022 08:38 10,5 C 10,6 C 7,2 C 92 % 1004,7 hPa 0,0 l/m 2 min 0 min 204 W/m 16,1 km/h (3 Bft) 93,62 %
23.04.2022 08:40 10,6 C 10,6 C 7,2 C 92 % 1004,7 hPa 0,0 l/m 2 min 0 min 256 W/m 9,7 km/h (2 Bft) 93,62 %
23.04.2022 08:42 10,7 C 10,6 C 7,2 C 92 % 1004,7 hPa 0,0 l/m 2 min 0 min 266 W/m 12,9 km/h (3 Bft) 97,87 %
23.04.2022 08:44 10,7 C 11,1 C 7,2 C 91 % 1004,7 hPa 0,0 l/m 2 min 0 min 271 W/m 19,3 km/h (3 Bft) 97,83 %
23.04.2022 08:46 10,8 C 11,1 C 7,2 C 91 % 1004,7 hPa 0,0 l/m 2 min 0 min 269 W/m 9,7 km/h (2 Bft) 97,87 %
23.04.2022 08:48 10,9 C 11,1 C 7,2 C 91 % 1004,7 hPa 0,0 l/m 2 min 0 min 282 W/m 16,1 km/h (3 Bft) 97,87 %
23.04.2022 08:50 11,0 C 11,7 C 7,2 C 90 % 1004,7 hPa 0,0 l/m 2 min 0 min 290 W/m 12,9 km/h (3 Bft) 95,74 %
23.04.2022 08:52 11,1 C 12,2 C 7,8 C 90 % 1004,7 hPa 0,0 l/m 2 min 0 min 294 W/m 9,7 km/h (2 Bft) 97,87 %
23.04.2022 08:54 11,2 C 13,9 C 7,8 C 90 % 1004,7 hPa 0,0 l/m 2 min 0 min 298 W/m 9,7 km/h (2 Bft) 97,87 %
23.04.2022 08:56 11,4 C 14,4 C 7,8 C 89 % 1004,7 hPa 0,0 l/m 2 min 0 min 302 W/m 9,7 km/h (2 Bft) 95,65 %
23.04.2022 08:58 11,8 C 15,6 C 7,8 C 88 % 1004,7 hPa 0,0 l/m 2 min 0 min 311 W/m 9,7 km/h (2 Bft) 97,87 %
23.04.2022 09:00 11,9 C 16,1 C 7,8 C 87 % 1004,7 hPa 0,0 l/m 2 min 0 min 317 W/m 19,3 km/h (3 Bft) 97,87 %
23.04.2022 09:02 12,1 C 16,1 C 7,8 C 86 % 1004,8 hPa 0,0 l/m 2 min 0 min 322 W/m 9,7 km/h (2 Bft) 97,87 %
23.04.2022 09:04 12,3 C 16,7 C 8,3 C 85 % 1004,7 hPa 0,0 l/m 2 min 0 min 320 W/m 16,1 km/h (3 Bft) 97,87 %
23.04.2022 09:06 12,3 C 16,7 C 8,3 C 84 % 1004,7 hPa 0,0 l/m 2 min 0 min 331 W/m 12,9 km/h (3 Bft) 94,74 %
23.04.2022 09:08 12,4 C 17,2 C 8,3 C 83 % 1004,7 hPa 0,0 l/m 2 min 0 min 339 W/m 12,9 km/h (3 Bft) 95,74 %
23.04.2022 09:10 12,6 C 17,2 C 8,9 C 84 % 1004,7 hPa 0,0 l/m 2 min 0 min 344 W/m 12,9 km/h (3 Bft) 95,65 %
23.04.2022 09:12 12,7 C 17,2 C 8,9 C 83 % 1004,7 hPa 0,0 l/m 2 min 0 min 347 W/m 12,9 km/h (3 Bft) 95,74 %
23.04.2022 09:14 12,8 C 17,8 C 9,4 C 83 % 1004,7 hPa 0,0 l/m 2 min 0 min 352 W/m 16,1 km/h (3 Bft) 95,74 %
23.04.2022 09:16 12,9 C 17,2 C 9,4 C 82 % 1004,6 hPa 0,0 l/m 2 min 0 min 363 W/m 16,1 km/h (3 Bft) 95,74 %
23.04.2022 09:18 13,0 C 17,8 C 9,4 C 82 % 1004,7 hPa 0,0 l/m 2 min 0 min 373 W/m 12,9 km/h (3 Bft) 97,87 %
23.04.2022 09:20 13,1 C 17,8 C 10,0 C 81 % 1004,7 hPa 0,0 l/m 2 min 0 min 379 W/m 12,9 km/h (3 Bft) 97,87 %
23.04.2022 09:22 13,1 C 18,3 C 10,0 C 81 % 1004,7 hPa 0,0 l/m 2 min 0 min 384 W/m 16,1 km/h (3 Bft) 95,65 %
23.04.2022 09:24 13,2 C 18,3 C 10,0 C 80 % 1004,7 hPa 0,0 l/m 2 min 0 min 390 W/m 12,9 km/h (3 Bft) 97,87 %
23.04.2022 09:26 13,3 C 18,3 C 10,0 C 81 % 1004,6 hPa 0,0 l/m 2 min 0 min 398 W/m 16,1 km/h (3 Bft) 97,87 %
23.04.2022 09:28 13,3 C 18,3 C 10,0 C 80 % 1004,6 hPa 0,0 l/m 2 min 0 min 406 W/m 12,9 km/h (3 Bft) 97,87 %
23.04.2022 09:30 13,4 C 18,3 C 10,0 C 80 % 1004,6 hPa 0,0 l/m 2 min 0 min 413 W/m 12,9 km/h (3 Bft) 97,87 %
23.04.2022 09:32 13,4 C 18,3 C 10,0 C 79 % 1004,6 hPa 0,0 l/m 2 min 0 min 418 W/m 16,1 km/h (3 Bft) 97,87 %
23.04.2022 09:34 13,5 C 18,9 C 10,0 C 79 % 1004,6 hPa 0,0 l/m 2 min 0 min 420 W/m 12,9 km/h (3 Bft) 97,83 %
23.04.2022 09:36 13,6 C 18,9 C 10,0 C 79 % 1004,6 hPa 0,0 l/m 2 min 0 min 424 W/m 12,9 km/h (3 Bft) 97,87 %
23.04.2022 09:38 13,7 C 18,9 C 10,0 C 77 % 1004,5 hPa 0,0 l/m 2 min 0 min 429 W/m 12,9 km/h (3 Bft) 97,87 %
23.04.2022 09:40 13,7 C 18,9 C 10,0 C 78 % 1004,5 hPa 0,0 l/m 2 min 0 min 439 W/m 12,9 km/h (3 Bft) 97,87 %
23.04.2022 09:42 13,7 C 18,9 C 10,0 C 77 % 1004,5 hPa 0,0 l/m 2 min 0 min 441 W/m 19,3 km/h (3 Bft) 97,87 %
23.04.2022 09:44 13,8 C 19,4 C 10,0 C 77 % 1004,5 hPa 0,0 l/m 2 min 0 min 447 W/m 9,7 km/h (2 Bft) 100,00 %
23.04.2022 09:46 13,9 C 18,9 C 10,0 C 77 % 1004,4 hPa 0,0 l/m 2 min 0 min 453 W/m 16,1 km/h (3 Bft) 100,00 %
23.04.2022 09:48 14,1 C 18,9 C 10,0 C 77 % 1004,4 hPa 0,0 l/m 2 min 0 min 461 W/m 12,9 km/h (3 Bft) 100,00 %
23.04.2022 09:50 14,3 C 19,4 C 10,0 C 77 % 1004,4 hPa 0,0 l/m 2 min 0 min 462 W/m 16,1 km/h (3 Bft) 100,00 %
23.04.2022 09:52 14,3 C 19,4 C 10,0 C 76 % 1004,5 hPa 0,0 l/m 2 min 0 min 316 W/m 16,1 km/h (3 Bft) 100,00 %
23.04.2022 09:54 14,3 C 19,4 C 10,0 C 75 % 1004,4 hPa 0,0 l/m 0 min 0 min 220 W/m 19,3 km/h (3 Bft) 100,00 %
23.04.2022 09:56 14,3 C 18,9 C 10,0 C 75 % 1004,4 hPa 0,0 l/m 0 min 0 min 208 W/m 12,9 km/h (3 Bft) 100,00 %
23.04.2022 09:58 14,4 C 18,9 C 10,0 C 74 % 1004,4 hPa 0,0 l/m 0 min 0 min 224 W/m 16,1 km/h (3 Bft) 100,00 %
23.04.2022 10:00 14,6 C 18,9 C 10,0 C 74 % 1004,5 hPa 0,0 l/m 2 min 0 min 356 W/m 12,9 km/h (3 Bft) 100,00 %
23.04.2022 10:02 14,6 C 19,4 C 10,0 C 74 % 1004,4 hPa 0,0 l/m 0 min 0 min 258 W/m 16,1 km/h (3 Bft) 100,00 %
23.04.2022 10:04 14,8 C 20,0 C 10,6 C 74 % 1004,4 hPa 0,0 l/m 0 min 0 min 130 W/m 9,7 km/h (2 Bft) 100,00 %
23.04.2022 10:06 15,0 C 20,6 C 10,6 C 73 % 1004,4 hPa 0,0 l/m 0 min 0 min 160 W/m 12,9 km/h (3 Bft) 100,00 %
23.04.2022 10:08 15,1 C 20,6 C 10,6 C 73 % 1004,4 hPa 0,0 l/m 0 min 0 min 158 W/m 16,1 km/h (3 Bft) 100,00 %
23.04.2022 10:10 15,2 C 20,0 C 10,6 C 73 % 1004,4 hPa 0,0 l/m 0 min 0 min 168 W/m 16,1 km/h (3 Bft) 97,92 %
23.04.2022 10:12 15,2 C 19,4 C 10,6 C 71 % 1004,4 hPa 0,0 l/m 2 min 0 min 300 W/m 16,1 km/h (3 Bft) 100,00 %
23.04.2022 10:14 15,2 C 19,4 C 10,6 C 70 % 1004,4 hPa 0,0 l/m 2 min 0 min 351 W/m 16,1 km/h (3 Bft) 100,00 %
23.04.2022 10:16 15,2 C 20,0 C 11,1 C 71 % 1004,4 hPa 0,0 l/m 2 min 0 min 383 W/m 12,9 km/h (3 Bft) 95,74 %
23.04.2022 10:18 15,3 C 20,0 C 11,1 C 70 % 1004,4 hPa 0,0 l/m 2 min 0 min 471 W/m 19,3 km/h (3 Bft) 97,87 %
23.04.2022 10:20 15,3 C 20,0 C 11,7 C 70 % 1004,4 hPa 0,0 l/m 2 min 0 min 361 W/m 12,9 km/h (3 Bft) 97,83 %
23.04.2022 10:22 15,4 C 20,0 C 12,2 C 70 % 1004,4 hPa 0,0 l/m 0 min 0 min 255 W/m 12,9 km/h (3 Bft) 97,87 %
23.04.2022 10:24 15,6 C 19,4 C 12,2 C 70 % 1004,4 hPa 0,0 l/m 0 min 0 min 256 W/m 16,1 km/h (3 Bft) 97,87 %
23.04.2022 10:26 15,6 C 19,4 C 12,2 C 71 % 1004,4 hPa 0,0 l/m 2 min 0 min 328 W/m 22,5 km/h (4 Bft) 95,74 %
23.04.2022 10:28 15,7 C 19,4 C 12,2 C 69 % 1004,4 hPa 0,0 l/m 0 min 0 min 215 W/m 12,9 km/h (3 Bft) 97,87 %
23.04.2022 10:30 15,7 C 19,4 C 12,2 C 69 % 1004,3 hPa 0,0 l/m 0 min 0 min 248 W/m 16,1 km/h (3 Bft) 97,87 %
23.04.2022 10:32 15,7 C 19,4 C 12,2 C 69 % 1004,3 hPa 0,0 l/m 2 min 0 min 410 W/m 16,1 km/h (3 Bft) 97,87 %
23.04.2022 10:34 15,8 C 19,4 C 12,8 C 69 % 1004,4 hPa 0,0 l/m 2 min 0 min 560 W/m 9,7 km/h (2 Bft) 95,74 %
23.04.2022 10:36 15,9 C 20,0 C 13,3 C 69 % 1004,4 hPa 0,0 l/m 2 min 0 min 580 W/m 16,1 km/h (3 Bft) 97,87 %
23.04.2022 10:38 16,0 C 19,4 C 13,3 C 69 % 1004,4 hPa 0,0 l/m 2 min 0 min 577 W/m 22,5 km/h (4 Bft) 97,87 %
23.04.2022 10:40 16,1 C 19,4 C 13,9 C 69 % 1004,4 hPa 0,0 l/m 2 min 0 min 591 W/m 12,9 km/h (3 Bft) 97,87 %
23.04.2022 10:42 16,1 C 18,9 C 13,9 C 68 % 1004,5 hPa 0,0 l/m 2 min 0 min 584 W/m 12,9 km/h (3 Bft) 97,83 %
23.04.2022 10:44 16,2 C 18,3 C 13,3 C 67 % 1004,4 hPa 0,0 l/m 2 min 0 min 600 W/m 22,5 km/h (4 Bft) 95,74 %
23.04.2022 10:46 16,1 C 18,3 C 13,3 C 67 % 1004,4 hPa 0,0 l/m 2 min 0 min 577 W/m 6,4 km/h (2 Bft) 97,87 %
23.04.2022 10:48 16,2 C 18,3 C 12,8 C 68 % 1004,4 hPa 0,0 l/m 2 min 0 min 506 W/m 12,9 km/h (3 Bft) 97,87 %
23.04.2022 10:50 16,2 C 17,8 C 12,8 C 67 % 1004,4 hPa 0,0 l/m 0 min 0 min 217 W/m 16,1 km/h (3 Bft) 95,74 %
23.04.2022 10:52 16,2 C 18,3 C 12,8 C 68 % 1004,3 hPa 0,0 l/m 0 min 0 min 292 W/m 12,9 km/h (3 Bft) 97,87 %
23.04.2022 10:54 16,3 C 18,3 C 12,8 C 68 % 1004,4 hPa 0,0 l/m 2 min 0 min 519 W/m 12,9 km/h (3 Bft) 97,83 %
23.04.2022 10:56 16,3 C 18,9 C 12,8 C 67 % 1004,4 hPa 0,0 l/m 2 min 0 min 627 W/m 16,1 km/h (3 Bft) 95,74 %
23.04.2022 10:58 16,4 C 18,3 C 12,8 C 67 % 1004,4 hPa 0,0 l/m 2 min 0 min 614 W/m 12,9 km/h (3 Bft) 97,87 %
23.04.2022 11:00 16,6 C 18,3 C 12,8 C 67 % 1004,3 hPa 0,0 l/m 2 min 0 min 616 W/m 19,3 km/h (3 Bft) 95,74 %
23.04.2022 11:02 16,5 C 18,3 C 12,8 C 66 % 1004,4 hPa 0,0 l/m 2 min 0 min 622 W/m 19,3 km/h (3 Bft) 97,92 %
23.04.2022 11:04 16,4 C 18,3 C 12,8 C 66 % 1004,4 hPa 0,0 l/m 2 min 0 min 622 W/m 16,1 km/h (3 Bft) 97,87 %
23.04.2022 11:06 16,3 C 18,3 C 12,8 C 67 % 1004,4 hPa 0,0 l/m 2 min 0 min 558 W/m 25,7 km/h (4 Bft) 97,83 %
23.04.2022 11:08 16,4 C 18,3 C 12,8 C 66 % 1004,4 hPa 0,0 l/m 2 min 0 min 446 W/m 16,1 km/h (3 Bft) 97,87 %
23.04.2022 11:10 16,7 C 18,9 C 13,3 C 67 % 1004,3 hPa 0,0 l/m 2 min 0 min 480 W/m 9,7 km/h (2 Bft) 97,87 %
23.04.2022 11:12 16,8 C 18,9 C 13,3 C 66 % 1004,4 hPa 0,0 l/m 2 min 0 min 480 W/m 19,3 km/h (3 Bft) 95,74 %
23.04.2022 11:14 16,9 C 18,9 C 13,3 C 66 % 1004,4 hPa 0,0 l/m 2 min 0 min 522 W/m 12,9 km/h (3 Bft) 95,74 %
23.04.2022 11:16 17,0 C 18,3 C 13,3 C 65 % 1004,3 hPa 0,0 l/m 2 min 0 min 734 W/m 16,1 km/h (3 Bft) 97,83 %
23.04.2022 11:18 16,9 C 17,8 C 13,3 C 64 % 1004,3 hPa 0,0 l/m 2 min 0 min 473 W/m 22,5 km/h (4 Bft) 97,87 %
23.04.2022 11:20 16,9 C 18,3 C 13,3 C 65 % 1004,4 hPa 0,0 l/m 2 min 0 min 462 W/m 12,9 km/h (3 Bft) 97,87 %
23.04.2022 11:22 16,9 C 17,8 C 13,3 C 64 % 1004,3 hPa 0,0 l/m 2 min 0 min 374 W/m 16,1 km/h (3 Bft) 95,74 %
23.04.2022 11:24 16,8 C 17,2 C 12,8 C 64 % 1004,4 hPa 0,0 l/m 2 min 0 min 355 W/m 16,1 km/h (3 Bft) 97,87 %
23.04.2022 11:26 16,7 C 17,2 C 12,8 C 64 % 1004,3 hPa 0,0 l/m 2 min 0 min 381 W/m 16,1 km/h (3 Bft) 97,87 %
23.04.2022 11:28 16,7 C 17,2 C 12,8 C 64 % 1004,4 hPa 0,0 l/m 2 min 0 min 364 W/m 19,3 km/h (3 Bft) 97,83 %
23.04.2022 11:30 16,7 C 17,8 C 13,3 C 64 % 1004,3 hPa 0,0 l/m 2 min 0 min 372 W/m 19,3 km/h (3 Bft) 97,87 %
23.04.2022 11:32 16,8 C 18,3 C 13,9 C 65 % 1004,3 hPa 0,0 l/m 2 min 0 min 662 W/m 9,7 km/h (2 Bft) 95,74 %
23.04.2022 11:34 17,0 C 18,3 C 13,3 C 64 % 1004,3 hPa 0,0 l/m 2 min 0 min 795 W/m 19,3 km/h (3 Bft) 97,87 %
23.04.2022 11:36 17,1 C 18,9 C 13,9 C 64 % 1004,2 hPa 0,0 l/m 2 min 0 min 662 W/m 16,1 km/h (3 Bft) 95,74 %
23.04.2022 11:38 17,3 C 18,9 C 13,9 C 64 % 1004,3 hPa 0,0 l/m 2 min 0 min 557 W/m 16,1 km/h (3 Bft) 97,87 %
23.04.2022 11:40 17,2 C 18,3 C 13,9 C 63 % 1004,2 hPa 0,0 l/m 2 min 0 min 365 W/m 22,5 km/h (4 Bft) 97,83 %
23.04.2022 11:42 17,1 C 18,3 C 13,9 C 64 % 1004,2 hPa 0,0 l/m 0 min 0 min 326 W/m 16,1 km/h (3 Bft) 100,00 %
23.04.2022 11:44 17,2 C 18,3 C 13,9 C 64 % 1004,3 hPa 0,0 l/m 2 min 0 min 614 W/m 12,9 km/h (3 Bft) 97,87 %
23.04.2022 11:46 17,3 C 18,3 C 13,9 C 64 % 1004,3 hPa 0,0 l/m 2 min 0 min 365 W/m 16,1 km/h (3 Bft) 100,00 %
23.04.2022 11:48 17,3 C 18,3 C 13,9 C 64 % 1004,2 hPa 0,0 l/m 2 min 0 min 361 W/m 16,1 km/h (3 Bft) 100,00 %
23.04.2022 11:50 17,3 C 18,9 C 14,4 C 64 % 1004,3 hPa 0,0 l/m 2 min 0 min 390 W/m 12,9 km/h (3 Bft) 100,00 %
23.04.2022 11:52 17,4 C 19,4 C 15,0 C 63 % 1004,2 hPa 0,0 l/m 2 min 0 min 390 W/m 16,1 km/h (3 Bft) 100,00 %
23.04.2022 11:54 17,5 C 20,6 C 15,6 C 63 % 1004,2 hPa 0,0 l/m 2 min 0 min 882 W/m 9,7 km/h (2 Bft) 100,00 %
23.04.2022 11:56 17,8 C 21,1 C 16,1 C 63 % 1004,2 hPa 0,0 l/m 2 min 0 min 906 W/m 19,3 km/h (3 Bft) 100,00 %
23.04.2022 11:58 18,1 C 21,1 C 16,1 C 62 % 1004,1 hPa 0,0 l/m 2 min 0 min 912 W/m 22,5 km/h (4 Bft) 100,00 %
23.04.2022 12:00 18,2 C 20,6 C 15,6 C 63 % 1004,2 hPa 0,0 l/m 2 min 0 min 629 W/m 19,3 km/h (3 Bft) 100,00 %
23.04.2022 12:02 18,1 C 19,4 C 15,0 C 62 % 1004,1 hPa 0,0 l/m 0 min 0 min 333 W/m 25,7 km/h (4 Bft) 97,87 %
23.04.2022 12:04 18,0 C 19,4 C 15,0 C 63 % 1004,1 hPa 0,0 l/m 0 min 0 min 347 W/m 12,9 km/h (3 Bft) 100,00 %
23.04.2022 12:08 18,2 C 20,0 C 15,0 C 63 % 1004,1 hPa 0,0 l/m 0 min 0 min 346 W/m 22,5 km/h (4 Bft) 98,94 %
23.04.2022 12:10 18,1 C 20,0 C 15,0 C 62 % 1004,1 hPa 0,0 l/m 0 min 0 min 309 W/m 16,1 km/h (3 Bft) 100,00 %
23.04.2022 12:12 17,9 C 20,0 C 15,0 C 62 % 1004,1 hPa 0,0 l/m 0 min 0 min 306 W/m 16,1 km/h (3 Bft) 100,00 %
23.04.2022 12:14 17,8 C 20,0 C 16,1 C 62 % 1004,1 hPa 0,0 l/m 2 min 0 min 701 W/m 12,9 km/h (3 Bft) 97,87 %
23.04.2022 12:16 18,0 C 20,6 C 16,1 C 62 % 1004,1 hPa 0,0 l/m 2 min 0 min 863 W/m 19,3 km/h (3 Bft) 97,83 %
23.04.2022 12:18 18,1 C 20,6 C 16,1 C 60 % 1004,1 hPa 0,0 l/m 2 min 0 min 851 W/m 22,5 km/h (4 Bft) 100,00 %
23.04.2022 12:20 18,3 C 21,1 C 16,7 C 60 % 1004,1 hPa 0,0 l/m 2 min 0 min 962 W/m 16,1 km/h (3 Bft) 100,00 %
23.04.2022 12:22 18,7 C 21,7 C 17,2 C 60 % 1004,1 hPa 0,0 l/m 2 min 0 min 971 W/m 16,1 km/h (3 Bft) 97,87 %
23.04.2022 12:24 18,8 C 21,7 C 16,7 C 60 % 1004,1 hPa 0,0 l/m 2 min 0 min 895 W/m 16,1 km/h (3 Bft) 100,00 %
23.04.2022 12:26 18,7 C 21,1 C 16,1 C 59 % 1004,1 hPa 0,0 l/m 2 min 0 min 370 W/m 12,9 km/h (3 Bft) 100,00 %
23.04.2022 12:28 18,6 C 20,6 C 16,1 C 60 % 1004,1 hPa 0,0 l/m 2 min 0 min 554 W/m 16,1 km/h (3 Bft) 100,00 %
23.04.2022 12:30 18,5 C 20,0 C 15,6 C 59 % 1004,2 hPa 0,0 l/m 0 min 0 min 347 W/m 16,1 km/h (3 Bft) 100,00 %
23.04.2022 12:32 18,4 C 19,4 C 15,6 C 59 % 1004,2 hPa 0,0 l/m 2 min 0 min 378 W/m 22,5 km/h (4 Bft) 97,92 %
23.04.2022 12:34 18,3 C 19,4 C 15,6 C 59 % 1004,2 hPa 0,0 l/m 2 min 0 min 380 W/m 12,9 km/h (3 Bft) 100,00 %
23.04.2022 12:36 18,3 C 20,6 C 17,2 C 60 % 1004,1 hPa 0,0 l/m 2 min 0 min 700 W/m 6,4 km/h (2 Bft) 97,87 %
23.04.2022 12:38 18,6 C 21,1 C 17,8 C 60 % 1004,0 hPa 0,0 l/m 2 min 0 min 569 W/m 12,9 km/h (3 Bft) 100,00 %
23.04.2022 12:40 18,7 C 21,7 C 17,8 C 60 % 1004,1 hPa 0,0 l/m 2 min 0 min 869 W/m 22,5 km/h (4 Bft) 100,00 %
23.04.2022 12:42 18,9 C 22,2 C 18,3 C 59 % 1004,0 hPa 0,0 l/m 2 min 0 min 907 W/m 12,9 km/h (3 Bft) 95,74 %
23.04.2022 12:44 18,9 C 22,2 C 18,3 C 59 % 1004,0 hPa 0,0 l/m 2 min 0 min 907 W/m 16,1 km/h (3 Bft) 100,00 %
23.04.2022 12:46 19,0 C 22,2 C 18,9 C 59 % 1004,1 hPa 0,0 l/m 2 min 0 min 893 W/m 16,1 km/h (3 Bft) 97,87 %
23.04.2022 12:48 19,2 C 23,3 C 18,9 C 60 % 1004,0 hPa 0,0 l/m 2 min 0 min 910 W/m 16,1 km/h (3 Bft) 97,87 %
23.04.2022 12:50 19,3 C 22,8 C 18,3 C 59 % 1004,0 hPa 0,0 l/m 2 min 0 min 914 W/m 12,9 km/h (3 Bft) 97,83 %
23.04.2022 12:52 19,1 C 21,7 C 16,7 C 58 % 1004,0 hPa 0,0 l/m 2 min 0 min 452 W/m 25,7 km/h (4 Bft) 97,87 %
23.04.2022 12:54 18,9 C 21,7 C 16,1 C 59 % 1003,9 hPa 0,0 l/m 2 min 0 min 401 W/m 19,3 km/h (3 Bft) 95,74 %
23.04.2022 12:56 18,8 C 21,7 C 16,1 C 58 % 1003,9 hPa 0,0 l/m 2 min 0 min 401 W/m 25,7 km/h (4 Bft) 93,62 %
23.04.2022 12:58 18,9 C 21,7 C 16,1 C 58 % 1003,9 hPa 0,0 l/m 2 min 0 min 673 W/m 12,9 km/h (3 Bft) 95,74 %
23.04.2022 13:00 19,0 C 21,1 C 15,6 C 59 % 1004,0 hPa 0,0 l/m 2 min 0 min 853 W/m 32,2 km/h (5 Bft) 95,74 %
23.04.2022 13:02 18,9 C 21,1 C 15,6 C 58 % 1004,0 hPa 0,0 l/m 0 min 0 min 350 W/m 16,1 km/h (3 Bft) 93,48 %
23.04.2022 13:04 18,9 C 21,7 C 15,6 C 58 % 1004,0 hPa 0,0 l/m 2 min 0 min 820 W/m 19,3 km/h (3 Bft) 97,87 %
23.04.2022 13:06 19,0 C 21,7 C 15,6 C 58 % 1004,0 hPa 0,0 l/m 2 min 0 min 572 W/m 16,1 km/h (3 Bft) 93,62 %
23.04.2022 13:08 19,0 C 21,7 C 15,6 C 58 % 1004,0 hPa 0,0 l/m 2 min 0 min 399 W/m 32,2 km/h (5 Bft) 93,62 %
23.04.2022 13:10 19,2 C 22,2 C 15,6 C 58 % 1004,0 hPa 0,0 l/m 2 min 0 min 848 W/m 16,1 km/h (3 Bft) 93,62 %
23.04.2022 13:12 19,4 C 22,2 C 15,6 C 57 % 1003,9 hPa 0,0 l/m 2 min 0 min 899 W/m 19,3 km/h (3 Bft) 91,49 %
23.04.2022 13:14 19,4 C 21,7 C 15,6 C 56 % 1004,0 hPa 0,0 l/m 2 min 0 min 728 W/m 16,1 km/h (3 Bft) 93,48 %
23.04.2022 13:16 19,3 C 21,7 C 15,6 C 57 % 1004,0 hPa 0,0 l/m 0 min 0 min 358 W/m 12,9 km/h (3 Bft) 91,49 %
23.04.2022 13:18 19,3 C 21,7 C 15,6 C 58 % 1003,9 hPa 0,0 l/m 2 min 0 min 626 W/m 16,1 km/h (3 Bft) 91,49 %
23.04.2022 13:20 19,4 C 21,7 C 15,6 C 57 % 1003,9 hPa 0,0 l/m 2 min 0 min 768 W/m 12,9 km/h (3 Bft) 93,62 %
23.04.2022 13:22 19,3 C 21,1 C 15,6 C 57 % 1003,9 hPa 0,0 l/m 2 min 0 min 1005 W/m 25,7 km/h (4 Bft) 93,62 %
23.04.2022 13:24 19,3 C 20,6 C 15,6 C 57 % 1003,9 hPa 0,0 l/m 2 min 0 min 520 W/m 19,3 km/h (3 Bft) 93,48 %
23.04.2022 13:26 19,3 C 21,1 C 15,6 C 57 % 1003,9 hPa 0,0 l/m 0 min 0 min 278 W/m 19,3 km/h (3 Bft) 91,49 %
23.04.2022 13:28 19,4 C 21,1 C 15,6 C 57 % 1003,8 hPa 0,0 l/m 0 min 0 min 274 W/m 12,9 km/h (3 Bft) 93,62 %
23.04.2022 13:30 19,3 C 20,6 C 15,0 C 57 % 1003,8 hPa 0,0 l/m 0 min 0 min 250 W/m 16,1 km/h (3 Bft) 93,62 %
23.04.2022 13:32 19,1 C 20,0 C 15,0 C 57 % 1003,9 hPa 0,0 l/m 0 min 0 min 232 W/m 16,1 km/h (3 Bft) 93,62 %
23.04.2022 13:34 19,0 C 20,0 C 15,0 C 57 % 1003,8 hPa 0,0 l/m 0 min 0 min 248 W/m 16,1 km/h (3 Bft) 93,62 %
23.04.2022 13:36 18,9 C 20,6 C 15,6 C 58 % 1003,8 hPa 0,0 l/m 2 min 0 min 453 W/m 12,9 km/h (3 Bft) 93,48 %
23.04.2022 13:38 19,0 C 21,7 C 16,1 C 58 % 1003,8 hPa 0,0 l/m 2 min 0 min 935 W/m 12,9 km/h (3 Bft) 93,62 %
23.04.2022 13:40 19,1 C 21,7 C 16,1 C 58 % 1003,7 hPa 0,0 l/m 2 min 0 min 597 W/m 22,5 km/h (4 Bft) 95,74 %
23.04.2022 13:42 19,2 C 20,6 C 15,6 C 57 % 1003,8 hPa 0,0 l/m 0 min 0 min 304 W/m 19,3 km/h (3 Bft) 97,87 %
23.04.2022 13:44 19,1 C 20,0 C 15,6 C 57 % 1003,8 hPa 0,0 l/m 0 min 0 min 287 W/m 22,5 km/h (4 Bft) 93,62 %
23.04.2022 13:46 19,0 C 19,4 C 15,0 C 56 % 1003,8 hPa 0,0 l/m 0 min 0 min 253 W/m 16,1 km/h (3 Bft) 97,87 %
23.04.2022 13:48 18,9 C 19,4 C 15,0 C 56 % 1003,7 hPa 0,0 l/m 0 min 0 min 264 W/m 19,3 km/h (3 Bft) 97,83 %
23.04.2022 13:50 18,9 C 20,6 C 15,6 C 58 % 1003,7 hPa 0,0 l/m 2 min 0 min 569 W/m 25,7 km/h (4 Bft) 97,87 %
23.04.2022 13:52 18,9 C 21,1 C 15,6 C 57 % 1003,7 hPa 0,0 l/m 2 min 0 min 929 W/m 19,3 km/h (3 Bft) 97,87 %
23.04.2022 13:54 19,0 C 21,7 C 15,6 C 57 % 1003,7 hPa 0,0 l/m 2 min 0 min 786 W/m 16,1 km/h (3 Bft) 97,87 %
23.04.2022 13:56 19,1 C 21,7 C 15,6 C 57 % 1003,7 hPa 0,0 l/m 2 min 0 min 786 W/m 22,5 km/h (4 Bft) 100,00 %
23.04.2022 13:58 19,1 C 21,1 C 15,6 C 57 % 1003,7 hPa 0,0 l/m 0 min 0 min 258 W/m 16,1 km/h (3 Bft) 97,87 %
23.04.2022 14:00 19,1 C 20,6 C 15,0 C 57 % 1003,7 hPa 0,0 l/m 0 min 0 min 220 W/m 16,1 km/h (3 Bft) 100,00 %
23.04.2022 14:02 18,9 C 20,6 C 15,0 C 57 % 1003,7 hPa 0,0 l/m 0 min 0 min 241 W/m 19,3 km/h (3 Bft) 97,87 %
23.04.2022 14:04 18,9 C 21,7 C 15,0 C 57 % 1003,6 hPa 0,0 l/m 2 min 0 min 858 W/m 19,3 km/h (3 Bft) 100,00 %
23.04.2022 14:06 19,0 C 22,8 C 15,0 C 57 % 1003,6 hPa 0,0 l/m 2 min 0 min 841 W/m 19,3 km/h (3 Bft) 100,00 %
23.04.2022 14:08 19,1 C 23,3 C 15,0 C 57 % 1003,7 hPa 0,0 l/m 2 min 0 min 832 W/m 16,1 km/h (3 Bft) 100,00 %
23.04.2022 14:10 19,2 C 23,3 C 15,6 C 57 % 1003,7 hPa 0,0 l/m 2 min 0 min 846 W/m 19,3 km/h (3 Bft) 100,00 %
23.04.2022 14:12 19,4 C 23,3 C 15,6 C 55 % 1003,7 hPa 0,0 l/m 2 min 0 min 864 W/m 29,0 km/h (5 Bft) 100,00 %
23.04.2022 14:14 19,5 C 23,3 C 15,6 C 55 % 1003,7 hPa 0,0 l/m 2 min 0 min 844 W/m 19,3 km/h (3 Bft) 100,00 %
23.04.2022 14:16 19,5 C 21,7 C 15,0 C 55 % 1003,6 hPa 0,0 l/m 0 min 0 min 193 W/m 22,5 km/h (4 Bft) 100,00 %
23.04.2022 14:18 19,5 C 22,2 C 15,6 C 55 % 1003,6 hPa 0,0 l/m 2 min 0 min 692 W/m 16,1 km/h (3 Bft) 100,00 %
23.04.2022 14:20 19,6 C 22,2 C 15,6 C 55 % 1003,6 hPa 0,0 l/m 2 min 0 min 831 W/m 12,9 km/h (3 Bft) 100,00 %
23.04.2022 14:22 19,6 C 22,2 C 15,6 C 55 % 1003,6 hPa 0,0 l/m 2 min 0 min 841 W/m 22,5 km/h (4 Bft) 97,87 %
23.04.2022 14:24 19,7 C 21,7 C 15,6 C 54 % 1003,6 hPa 0,0 l/m 2 min 0 min 896 W/m 29,0 km/h (5 Bft) 100,00 %
23.04.2022 14:26 19,6 C 21,7 C 15,0 C 54 % 1003,6 hPa 0,0 l/m 2 min 0 min 894 W/m 22,5 km/h (4 Bft) 100,00 %
23.04.2022 14:28 19,5 C 22,8 C 15,0 C 55 % 1003,5 hPa 0,0 l/m 2 min 0 min 852 W/m 16,1 km/h (3 Bft) 100,00 %
23.04.2022 14:30 19,6 C 22,2 C 15,6 C 54 % 1003,5 hPa 0,0 l/m 2 min 0 min 837 W/m 22,5 km/h (4 Bft) 100,00 %
23.04.2022 14:32 19,6 C 22,2 C 15,0 C 54 % 1003,5 hPa 0,0 l/m 2 min 0 min 809 W/m 16,1 km/h (3 Bft) 100,00 %
23.04.2022 14:34 19,6 C 22,8 C 15,6 C 55 % 1003,4 hPa 0,0 l/m 2 min 0 min 821 W/m 22,5 km/h (4 Bft) 97,87 %
23.04.2022 14:36 19,7 C 22,8 C 15,6 C 54 % 1003,4 hPa 0,0 l/m 2 min 0 min 824 W/m 22,5 km/h (4 Bft) 100,00 %
23.04.2022 14:38 19,8 C 22,8 C 15,6 C 54 % 1003,5 hPa 0,0 l/m 2 min 0 min 834 W/m 19,3 km/h (3 Bft) 100,00 %
23.04.2022 14:40 19,9 C 22,8 C 15,6 C 54 % 1003,4 hPa 0,0 l/m 2 min 0 min 829 W/m 16,1 km/h (3 Bft) 100,00 %
23.04.2022 14:42 19,9 C 22,8 C 15,6 C 53 % 1003,4 hPa 0,0 l/m 2 min 0 min 819 W/m 22,5 km/h (4 Bft) 97,87 %
23.04.2022 14:44 20,0 C 23,3 C 15,6 C 53 % 1003,4 hPa 0,0 l/m 2 min 0 min 824 W/m 16,1 km/h (3 Bft) 100,00 %
23.04.2022 14:46 20,1 C 23,3 C 15,6 C 54 % 1003,4 hPa 0,0 l/m 2 min 0 min 840 W/m 25,7 km/h (4 Bft) 100,00 %
23.04.2022 14:48 20,1 C 23,9 C 16,1 C 53 % 1003,3 hPa 0,0 l/m 2 min 0 min 878 W/m 22,5 km/h (4 Bft) 100,00 %
23.04.2022 14:50 20,1 C 24,4 C 16,1 C 54 % 1003,3 hPa 0,0 l/m 2 min 0 min 852 W/m 19,3 km/h (3 Bft) 100,00 %
23.04.2022 14:52 20,1 C 24,4 C 16,1 C 54 % 1003,3 hPa 0,0 l/m 2 min 0 min 904 W/m 16,1 km/h (3 Bft) 100,00 %
23.04.2022 14:54 20,1 C 23,3 C 15,6 C 54 % 1003,3 hPa 0,0 l/m 2 min 0 min 648 W/m 22,5 km/h (4 Bft) 100,00 %
23.04.2022 14:56 19,9 C 22,2 C 15,6 C 53 % 1003,3 hPa 0,0 l/m 0 min 0 min 238 W/m 16,1 km/h (3 Bft) 100,00 %
23.04.2022 14:58 19,8 C 21,1 C 15,6 C 54 % 1003,2 hPa 0,0 l/m 0 min 0 min 241 W/m 16,1 km/h (3 Bft) 100,00 %
23.04.2022 15:00 19,6 C 20,6 C 15,0 C 53 % 1003,2 hPa 0,0 l/m 0 min 0 min 241 W/m 19,3 km/h (3 Bft) 100,00 %
23.04.2022 15:02 19,5 C 20,0 C 15,0 C 54 % 1003,2 hPa 0,0 l/m 0 min 0 min 230 W/m 16,1 km/h (3 Bft) 100,00 %
23.04.2022 15:04 19,3 C 20,0 C 15,0 C 54 % 1003,2 hPa 0,0 l/m 0 min 0 min 252 W/m 16,1 km/h (3 Bft) 97,87 %
23.04.2022 15:06 19,2 C 20,0 C 15,0 C 55 % 1003,2 hPa 0,0 l/m 0 min 0 min 240 W/m 12,9 km/h (3 Bft) 100,00 %
23.04.2022 15:08 19,2 C 19,4 C 14,4 C 55 % 1003,2 hPa 0,0 l/m 0 min 0 min 238 W/m 16,1 km/h (3 Bft) 100,00 %
23.04.2022 15:10 19,1 C 20,6 C 15,0 C 55 % 1003,1 hPa 0,0 l/m 2 min 0 min 358 W/m 19,3 km/h (3 Bft) 95,65 %
23.04.2022 15:12 19,2 C 21,7 C 15,0 C 56 % 1003,1 hPa 0,0 l/m 2 min 0 min 775 W/m 12,9 km/h (3 Bft) 95,74 %
23.04.2022 15:14 19,3 C 22,2 C 15,6 C 55 % 1003,1 hPa 0,0 l/m 2 min 0 min 756 W/m 22,5 km/h (4 Bft) 97,87 %
23.04.2022 15:16 19,3 C 21,7 C 15,0 C 55 % 1003,1 hPa 0,0 l/m 2 min 0 min 385 W/m 19,3 km/h (3 Bft) 97,87 %
23.04.2022 15:18 19,4 C 21,7 C 15,6 C 55 % 1003,2 hPa 0,0 l/m 2 min 0 min 471 W/m 16,1 km/h (3 Bft) 97,87 %
23.04.2022 15:20 19,5 C 22,2 C 15,6 C 54 % 1003,2 hPa 0,0 l/m 2 min 0 min 750 W/m 16,1 km/h (3 Bft) 97,83 %
23.04.2022 15:22 19,6 C 22,8 C 15,6 C 55 % 1003,1 hPa 0,0 l/m 2 min 0 min 761 W/m 19,3 km/h (3 Bft) 95,74 %
23.04.2022 15:24 19,8 C 22,8 C 15,6 C 54 % 1003,1 hPa 0,0 l/m 2 min 0 min 790 W/m 16,1 km/h (3 Bft) 100,00 %
23.04.2022 15:26 19,9 C 22,8 C 15,6 C 54 % 1003,1 hPa 0,0 l/m 2 min 0 min 820 W/m 19,3 km/h (3 Bft) 97,87 %
23.04.2022 15:28 20,0 C 22,8 C 15,6 C 54 % 1003,1 hPa 0,0 l/m 2 min 0 min 818 W/m 22,5 km/h (4 Bft) 97,87 %
23.04.2022 15:30 20,1 C 22,8 C 15,6 C 53 % 1003,1 hPa 0,0 l/m 2 min 0 min 827 W/m 19,3 km/h (3 Bft) 97,87 %
23.04.2022 15:32 20,2 C 22,2 C 15,6 C 53 % 1003,1 hPa 0,0 l/m 2 min 0 min 758 W/m 12,9 km/h (3 Bft) 97,83 %
23.04.2022 15:34 20,3 C 23,3 C 16,1 C 53 % 1003,1 hPa 0,0 l/m 2 min 0 min 492 W/m 12,9 km/h (3 Bft) 93,62 %
23.04.2022 15:36 20,4 C 23,9 C 16,7 C 53 % 1003,0 hPa 0,0 l/m 2 min 0 min 811 W/m 12,9 km/h (3 Bft) 95,74 %
23.04.2022 15:38 20,6 C 23,9 C 16,7 C 53 % 1003,0 hPa 0,0 l/m 2 min 0 min 792 W/m 12,9 km/h (3 Bft) 95,74 %
23.04.2022 15:40 20,7 C 24,4 C 16,7 C 53 % 1003,0 hPa 0,0 l/m 2 min 0 min 786 W/m 9,7 km/h (2 Bft) 95,74 %
23.04.2022 15:42 20,7 C 24,4 C 16,7 C 52 % 1003,0 hPa 0,0 l/m 2 min 0 min 808 W/m 19,3 km/h (3 Bft) 95,74 %
23.04.2022 15:44 20,8 C 23,9 C 16,7 C 51 % 1003,0 hPa 0,0 l/m 2 min 0 min 794 W/m 16,1 km/h (3 Bft) 95,65 %
23.04.2022 15:46 20,8 C 23,9 C 16,7 C 51 % 1003,0 hPa 0,0 l/m 2 min 0 min 791 W/m 12,9 km/h (3 Bft) 97,87 %
23.04.2022 15:48 20,8 C 23,3 C 16,7 C 51 % 1003,0 hPa 0,0 l/m 2 min 0 min 603 W/m 22,5 km/h (4 Bft) 97,87 %
23.04.2022 15:50 20,8 C 23,9 C 16,7 C 51 % 1003,0 hPa 0,0 l/m 2 min 0 min 685 W/m 19,3 km/h (3 Bft) 100,00 %
23.04.2022 15:52 20,8 C 24,4 C 16,7 C 52 % 1002,9 hPa 0,0 l/m 2 min 0 min 825 W/m 16,1 km/h (3 Bft) 97,87 %
23.04.2022 15:54 20,9 C 23,9 C 17,2 C 53 % 1002,9 hPa 0,0 l/m 2 min 0 min 812 W/m 16,1 km/h (3 Bft) 97,87 %
23.04.2022 15:56 20,9 C 22,8 C 16,7 C 52 % 1002,9 hPa 0,0 l/m 0 min 0 min 293 W/m 12,9 km/h (3 Bft) 95,65 %
23.04.2022 15:58 20,9 C 21,7 C 16,1 C 52 % 1003,0 hPa 0,0 l/m 0 min 0 min 253 W/m 19,3 km/h (3 Bft) 97,87 %
23.04.2022 16:00 20,8 C 21,7 C 16,1 C 52 % 1003,0 hPa 0,0 l/m 0 min 0 min 254 W/m 19,3 km/h (3 Bft) 97,87 %
23.04.2022 16:02 20,6 C 21,1 C 15,6 C 52 % 1002,9 hPa 0,0 l/m 0 min 0 min 248 W/m 19,3 km/h (3 Bft) 95,74 %
23.04.2022 16:04 20,4 C 20,6 C 15,6 C 52 % 1002,9 hPa 0,0 l/m 0 min 0 min 208 W/m 16,1 km/h (3 Bft) 95,74 %
23.04.2022 16:06 20,3 C 20,6 C 15,6 C 52 % 1002,9 hPa 0,0 l/m 0 min 0 min 205 W/m 19,3 km/h (3 Bft) 97,87 %
23.04.2022 16:08 20,1 C 20,0 C 15,6 C 53 % 1002,9 hPa 0,0 l/m 0 min 0 min 228 W/m 12,9 km/h (3 Bft) 97,83 %
23.04.2022 16:10 19,9 C 20,6 C 15,6 C 54 % 1002,9 hPa 0,0 l/m 0 min 0 min 286 W/m 19,3 km/h (3 Bft) 97,87 %
23.04.2022 16:12 19,9 C 22,8 C 15,6 C 54 % 1002,9 hPa 0,0 l/m 2 min 0 min 356 W/m 9,7 km/h (2 Bft) 95,74 %
23.04.2022 16:14 20,0 C 23,9 C 16,1 C 54 % 1002,9 hPa 0,0 l/m 2 min 0 min 708 W/m 19,3 km/h (3 Bft) 95,74 %
23.04.2022 16:16 20,1 C 24,4 C 16,7 C 54 % 1002,8 hPa 0,0 l/m 2 min 0 min 701 W/m 22,5 km/h (4 Bft) 95,74 %
23.04.2022 16:18 20,1 C 24,4 C 16,7 C 54 % 1002,8 hPa 0,0 l/m 2 min 0 min 372 W/m 19,3 km/h (3 Bft) 95,74 %
23.04.2022 16:20 20,2 C 25,0 C 16,7 C 54 % 1002,8 hPa 0,0 l/m 2 min 0 min 532 W/m 19,3 km/h (3 Bft) 97,83 %
23.04.2022 16:22 20,1 C 23,3 C 16,1 C 54 % 1002,7 hPa 0,0 l/m 2 min 0 min 438 W/m 12,9 km/h (3 Bft) 97,87 %
23.04.2022 16:24 19,9 C 22,2 C 15,6 C 53 % 1002,8 hPa 0,0 l/m 0 min 0 min 164 W/m 19,3 km/h (3 Bft) 97,87 %
23.04.2022 16:26 19,6 C 21,1 C 15,0 C 54 % 1002,8 hPa 0,0 l/m 0 min 0 min 170 W/m 19,3 km/h (3 Bft) 95,74 %
23.04.2022 16:28 19,4 C 20,6 C 15,0 C 55 % 1002,8 hPa 0,0 l/m 0 min 0 min 182 W/m 29,0 km/h (5 Bft) 93,62 %
23.04.2022 16:30 19,3 C 21,1 C 15,0 C 56 % 1002,7 hPa 0,0 l/m 0 min 0 min 188 W/m 12,9 km/h (3 Bft) 97,87 %
23.04.2022 16:32 19,3 C 20,6 C 15,0 C 55 % 1002,7 hPa 0,0 l/m 0 min 0 min 184 W/m 12,9 km/h (3 Bft) 95,65 %
23.04.2022 16:34 19,2 C 21,1 C 15,0 C 55 % 1002,7 hPa 0,0 l/m 0 min 0 min 191 W/m 12,9 km/h (3 Bft) 97,87 %
23.04.2022 16:36 19,2 C 22,2 C 15,0 C 54 % 1002,6 hPa 0,0 l/m 2 min 0 min 350 W/m 16,1 km/h (3 Bft) 97,87 %
23.04.2022 16:38 19,2 C 22,2 C 15,6 C 54 % 1002,7 hPa 0,0 l/m 2 min 0 min 606 W/m 22,5 km/h (4 Bft) 95,74 %
23.04.2022 16:40 19,3 C 21,1 C 15,0 C 54 % 1002,7 hPa 0,0 l/m 0 min 0 min 222 W/m 12,9 km/h (3 Bft) 97,87 %
23.04.2022 16:42 19,2 C 20,0 C 15,0 C 54 % 1002,6 hPa 0,0 l/m 0 min 0 min 138 W/m 12,9 km/h (3 Bft) 97,83 %
23.04.2022 16:44 19,1 C 19,4 C 14,4 C 54 % 1002,7 hPa 0,0 l/m 0 min 0 min 139 W/m 6,4 km/h (2 Bft) 97,87 %
23.04.2022 16:46 19,1 C 18,9 C 14,4 C 55 % 1002,7 hPa 0,0 l/m 0 min 0 min 157 W/m 16,1 km/h (3 Bft) 95,74 %
23.04.2022 16:48 19,0 C 20,0 C 14,4 C 55 % 1002,7 hPa 0,0 l/m 0 min 0 min 178 W/m 16,1 km/h (3 Bft) 97,87 %
23.04.2022 16:50 19,0 C 21,7 C 15,0 C 55 % 1002,7 hPa 0,0 l/m 2 min 0 min 472 W/m 16,1 km/h (3 Bft) 97,87 %
23.04.2022 16:52 19,1 C 22,8 C 15,0 C 55 % 1002,7 hPa 0,0 l/m 2 min 0 min 569 W/m 12,9 km/h (3 Bft) 97,87 %
23.04.2022 16:54 19,2 C 22,2 C 15,6 C 55 % 1002,6 hPa 0,0 l/m 2 min 0 min 568 W/m 16,1 km/h (3 Bft) 97,83 %
23.04.2022 16:56 19,3 C 22,2 C 15,6 C 55 % 1002,7 hPa 0,0 l/m 2 min 0 min 491 W/m 19,3 km/h (3 Bft) 97,87 %
23.04.2022 16:58 19,4 C 22,2 C 15,6 C 55 % 1002,7 hPa 0,0 l/m 2 min 0 min 494 W/m 12,9 km/h (3 Bft) 97,87 %
23.04.2022 17:00 19,5 C 21,7 C 15,6 C 55 % 1002,6 hPa 0,0 l/m 2 min 0 min 375 W/m 16,1 km/h (3 Bft) 95,74 %
23.04.2022 17:02 19,6 C 21,1 C 15,6 C 54 % 1002,6 hPa 0,0 l/m 2 min 0 min 285 W/m 16,1 km/h (3 Bft) 97,92 %
23.04.2022 17:04 19,6 C 21,1 C 15,6 C 54 % 1002,6 hPa 0,0 l/m 2 min 0 min 303 W/m 16,1 km/h (3 Bft) 100,00 %
23.04.2022 17:06 19,6 C 21,1 C 15,6 C 54 % 1002,6 hPa 0,0 l/m 2 min 0 min 419 W/m 16,1 km/h (3 Bft) 97,83 %
23.04.2022 17:08 19,6 C 20,0 C 15,6 C 54 % 1002,6 hPa 0,0 l/m 0 min 0 min 222 W/m 19,3 km/h (3 Bft) 100,00 %
23.04.2022 17:10 19,5 C 20,0 C 15,6 C 54 % 1002,6 hPa 0,0 l/m 0 min 0 min 213 W/m 16,1 km/h (3 Bft) 100,00 %
23.04.2022 17:12 19,3 C 19,4 C 15,0 C 55 % 1002,6 hPa 0,0 l/m 0 min 0 min 195 W/m 32,2 km/h (5 Bft) 100,00 %
23.04.2022 17:14 19,1 C 19,4 C 15,0 C 55 % 1002,7 hPa 0,0 l/m 0 min 0 min 179 W/m 19,3 km/h (3 Bft) 100,00 %
23.04.2022 17:16 18,9 C 18,9 C 14,4 C 55 % 1002,6 hPa 0,0 l/m 0 min 0 min 170 W/m 25,7 km/h (4 Bft) 97,83 %
23.04.2022 17:18 18,7 C 18,9 C 14,4 C 56 % 1002,6 hPa 0,0 l/m 0 min 0 min 155 W/m 22,5 km/h (4 Bft) 100,00 %
23.04.2022 17:20 18,6 C 18,3 C 14,4 C 56 % 1002,7 hPa 0,0 l/m 0 min 0 min 133 W/m 19,3 km/h (3 Bft) 97,87 %
23.04.2022 17:22 18,4 C 18,3 C 13,9 C 56 % 1002,7 hPa 0,0 l/m 0 min 0 min 108 W/m 19,3 km/h (3 Bft) 97,87 %
23.04.2022 17:24 18,2 C 18,3 C 13,9 C 56 % 1002,7 hPa 0,0 l/m 0 min 0 min 94 W/m 25,7 km/h (4 Bft) 95,74 %
23.04.2022 17:26 18,1 C 17,8 C 13,9 C 57 % 1002,6 hPa 0,0 l/m 0 min 0 min 92 W/m 25,7 km/h (4 Bft) 97,87 %
23.04.2022 17:28 17,9 C 17,8 C 13,3 C 57 % 1002,7 hPa 0,0 l/m 0 min 0 min 89 W/m 19,3 km/h (3 Bft) 97,83 %
23.04.2022 17:30 17,8 C 17,2 C 13,3 C 58 % 1002,7 hPa 0,0 l/m 0 min 0 min 82 W/m 16,1 km/h (3 Bft) 97,87 %
23.04.2022 17:32 17,7 C 17,2 C 13,3 C 58 % 1002,6 hPa 0,0 l/m 0 min 0 min 77 W/m 19,3 km/h (3 Bft) 95,83 %
23.04.2022 17:34 17,6 C 17,2 C 13,3 C 58 % 1002,7 hPa 0,0 l/m 0 min 0 min 77 W/m 19,3 km/h (3 Bft) 97,87 %
23.04.2022 17:36 17,6 C 17,2 C 13,3 C 58 % 1002,7 hPa 0,0 l/m 0 min 0 min 83 W/m 16,1 km/h (3 Bft) 97,14 %
23.04.2022 17:38 17,6 C 17,2 C 13,3 C 59 % 1002,7 hPa 0,0 l/m 0 min 0 min 93 W/m 19,3 km/h (3 Bft) 98,31 %
23.04.2022 17:40 17,5 C 17,2 C 13,3 C 58 % 1002,7 hPa 0,0 l/m 0 min 0 min 105 W/m 19,3 km/h (3 Bft) 97,14 %
23.04.2022 17:42 17,5 C 17,2 C 13,3 C 58 % 1002,7 hPa 0,0 l/m 0 min 0 min 116 W/m 22,5 km/h (4 Bft) 98,28 %
23.04.2022 17:44 17,5 C 17,2 C 13,3 C 58 % 1002,7 hPa 0,0 l/m 0 min 0 min 125 W/m 22,5 km/h (4 Bft) 94,29 %
23.04.2022 17:46 17,5 C 17,2 C 13,3 C 58 % 1002,7 hPa 0,0 l/m 0 min 0 min 137 W/m 12,9 km/h (3 Bft) 96,61 %
23.04.2022 17:48 17,5 C 17,2 C 13,3 C 58 % 1002,7 hPa 0,0 l/m 0 min 0 min 149 W/m 16,1 km/h (3 Bft) 97,87 %
23.04.2022 17:50 17,6 C 17,8 C 13,9 C 58 % 1002,7 hPa 0,0 l/m 0 min 0 min 153 W/m 16,1 km/h (3 Bft) 95,74 %
23.04.2022 17:52 17,6 C 17,8 C 13,9 C 58 % 1002,7 hPa 0,0 l/m 0 min 0 min 156 W/m 19,3 km/h (3 Bft) 97,83 %
23.04.2022 17:54 17,6 C 17,8 C 13,9 C 58 % 1002,7 hPa 0,0 l/m 0 min 0 min 165 W/m 22,5 km/h (4 Bft) 97,87 %
23.04.2022 17:56 17,6 C 17,8 C 13,9 C 58 % 1002,7 hPa 0,0 l/m 0 min 0 min 170 W/m 19,3 km/h (3 Bft) 100,00 %
23.04.2022 17:58 17,6 C 17,8 C 13,9 C 58 % 1002,7 hPa 0,0 l/m 0 min 0 min 174 W/m 25,7 km/h (4 Bft) 100,00 %
23.04.2022 18:00 17,6 C 17,8 C 13,9 C 58 % 1002,7 hPa 0,0 l/m 0 min 0 min 182 W/m 19,3 km/h (3 Bft) 100,00 %
23.04.2022 18:02 17,6 C 17,8 C 13,9 C 58 % 1002,7 hPa 0,0 l/m 0 min 0 min 184 W/m 12,9 km/h (3 Bft) 100,00 %
23.04.2022 18:04 17,7 C 17,8 C 13,9 C 59 % 1002,7 hPa 0,0 l/m 0 min 0 min 176 W/m 9,7 km/h (2 Bft) 100,00 %
23.04.2022 18:08 17,7 C 17,8 C 13,9 C 57 % 1002,6 hPa 0,0 l/m 0 min 0 min 159 W/m 19,3 km/h (3 Bft) 100,00 %
23.04.2022 18:10 17,7 C 17,8 C 13,3 C 57 % 1002,7 hPa 0,0 l/m 0 min 0 min 150 W/m 16,1 km/h (3 Bft) 100,00 %
23.04.2022 18:12 17,7 C 17,8 C 13,3 C 57 % 1002,7 hPa 0,0 l/m 0 min 0 min 160 W/m 9,7 km/h (2 Bft) 100,00 %
23.04.2022 18:14 17,7 C 17,8 C 13,3 C 57 % 1002,7 hPa 0,0 l/m 0 min 0 min 168 W/m 16,1 km/h (3 Bft) 95,65 %
23.04.2022 18:16 17,7 C 17,8 C 13,3 C 58 % 1002,7 hPa 0,0 l/m 0 min 0 min 175 W/m 12,9 km/h (3 Bft) 97,87 %
23.04.2022 18:18 17,7 C 17,8 C 13,3 C 58 % 1002,7 hPa 0,0 l/m 2 min 0 min 181 W/m 12,9 km/h (3 Bft) 94,29 %
23.04.2022 18:20 17,7 C 17,8 C 13,3 C 58 % 1002,7 hPa 0,0 l/m 2 min 0 min 188 W/m 12,9 km/h (3 Bft) 97,87 %
23.04.2022 18:22 17,7 C 17,8 C 13,3 C 59 % 1002,6 hPa 0,0 l/m 2 min 0 min 192 W/m 12,9 km/h (3 Bft) 94,92 %
23.04.2022 18:24 17,7 C 17,8 C 13,3 C 59 % 1002,7 hPa 0,0 l/m 2 min 0 min 197 W/m 12,9 km/h (3 Bft) 97,14 %
23.04.2022 18:26 17,7 C 17,8 C 13,3 C 58 % 1002,7 hPa 0,0 l/m 2 min 0 min 174 W/m 16,1 km/h (3 Bft) 97,87 %
23.04.2022 18:28 17,7 C 17,8 C 13,3 C 57 % 1002,6 hPa 0,0 l/m 0 min 0 min 157 W/m 16,1 km/h (3 Bft) 97,87 %
23.04.2022 18:30 17,7 C 17,8 C 13,3 C 57 % 1002,6 hPa 0,0 l/m 0 min 0 min 149 W/m 16,1 km/h (3 Bft) 97,83 %
23.04.2022 18:32 17,7 C 17,8 C 13,3 C 58 % 1002,6 hPa 0,0 l/m 2 min 0 min 177 W/m 16,1 km/h (3 Bft) 96,61 %
23.04.2022 18:34 17,7 C 17,8 C 13,3 C 57 % 1002,6 hPa 0,0 l/m 2 min 0 min 198 W/m 22,5 km/h (4 Bft) 97,14 %
23.04.2022 18:36 17,7 C 18,3 C 13,3 C 57 % 1002,6 hPa 0,0 l/m 2 min 0 min 206 W/m 12,9 km/h (3 Bft) 94,92 %
23.04.2022 18:38 17,7 C 17,8 C 13,3 C 57 % 1002,5 hPa 0,0 l/m 2 min 0 min 222 W/m 22,5 km/h (4 Bft) 97,83 %
23.04.2022 18:40 17,7 C 17,8 C 13,3 C 56 % 1002,5 hPa 0,0 l/m 2 min 0 min 236 W/m 25,7 km/h (4 Bft) 100,00 %
23.04.2022 18:42 17,7 C 17,8 C 13,3 C 56 % 1002,6 hPa 0,0 l/m 2 min 0 min 234 W/m 19,3 km/h (3 Bft) 96,55 %
23.04.2022 18:44 17,7 C 17,8 C 13,3 C 55 % 1002,6 hPa 0,0 l/m 2 min 0 min 229 W/m 25,7 km/h (4 Bft) 97,14 %
23.04.2022 18:46 17,7 C 17,8 C 13,3 C 55 % 1002,6 hPa 0,0 l/m 2 min 0 min 224 W/m 19,3 km/h (3 Bft) 97,87 %
23.04.2022 18:48 17,7 C 17,8 C 13,3 C 56 % 1002,6 hPa 0,0 l/m 2 min 0 min 219 W/m 19,3 km/h (3 Bft) 98,31 %
23.04.2022 18:50 17,7 C 17,8 C 13,3 C 56 % 1002,6 hPa 0,0 l/m 2 min 0 min 226 W/m 19,3 km/h (3 Bft) 95,65 %
23.04.2022 18:52 17,7 C 17,8 C 13,3 C 55 % 1002,6 hPa 0,0 l/m 2 min 0 min 203 W/m 25,7 km/h (4 Bft) 97,87 %
23.04.2022 18:54 17,7 C 17,2 C 13,3 C 55 % 1002,6 hPa 0,0 l/m 2 min 0 min 165 W/m 22,5 km/h (4 Bft) 95,74 %
23.04.2022 18:56 17,7 C 17,2 C 13,3 C 56 % 1002,6 hPa 0,0 l/m 0 min 0 min 128 W/m 19,3 km/h (3 Bft) 100,00 %
23.04.2022 18:58 17,6 C 17,2 C 13,3 C 56 % 1002,6 hPa 0,0 l/m 0 min 0 min 107 W/m 22,5 km/h (4 Bft) 96,61 %
23.04.2022 19:00 17,6 C 17,2 C 13,3 C 56 % 1002,6 hPa 0,0 l/m 0 min 0 min 96 W/m 16,1 km/h (3 Bft) 97,14 %
23.04.2022 19:02 17,6 C 16,7 C 12,8 C 56 % 1002,6 hPa 0,0 l/m 0 min 0 min 88 W/m 19,3 km/h (3 Bft) 100,00 %
23.04.2022 19:04 17,5 C 16,7 C 12,8 C 56 % 1002,6 hPa 0,0 l/m 0 min 0 min 80 W/m 16,1 km/h (3 Bft) 100,00 %
23.04.2022 19:06 17,4 C 16,7 C 12,8 C 57 % 1002,6 hPa 0,0 l/m 0 min 0 min 77 W/m 19,3 km/h (3 Bft) 100,00 %
23.04.2022 19:08 17,4 C 16,7 C 12,8 C 57 % 1002,6 hPa 0,0 l/m 0 min 0 min 70 W/m 12,9 km/h (3 Bft) 97,87 %
23.04.2022 19:10 17,3 C 16,7 C 12,8 C 57 % 1002,7 hPa 0,0 l/m 0 min 0 min 65 W/m 16,1 km/h (3 Bft) 95,74 %
23.04.2022 19:12 17,3 C 16,7 C 12,8 C 57 % 1002,7 hPa 0,0 l/m 0 min 0 min 62 W/m 22,5 km/h (4 Bft) 97,14 %
23.04.2022 19:14 17,2 C 16,7 C 12,8 C 57 % 1002,6 hPa 0,0 l/m 0 min 0 min 57 W/m 19,3 km/h (3 Bft) 96,55 %
23.04.2022 19:16 17,2 C 16,7 C 12,8 C 57 % 1002,7 hPa 0,0 l/m 0 min 0 min 53 W/m 16,1 km/h (3 Bft) 97,87 %
23.04.2022 19:18 17,2 C 16,7 C 12,8 C 57 % 1002,7 hPa 0,0 l/m 0 min 0 min 50 W/m 12,9 km/h (3 Bft) 100,00 %
23.04.2022 19:20 17,2 C 16,7 C 12,8 C 57 % 1002,7 hPa 0,0 l/m 0 min 0 min 49 W/m 9,7 km/h (2 Bft) 95,74 %
23.04.2022 19:22 17,1 C 16,1 C 12,8 C 58 % 1002,7 hPa 0,0 l/m 0 min 0 min 47 W/m 12,9 km/h (3 Bft) 94,92 %
23.04.2022 19:24 17,1 C 16,1 C 12,8 C 57 % 1002,7 hPa 0,0 l/m 0 min 0 min 45 W/m 16,1 km/h (3 Bft) 95,74 %
23.04.2022 19:26 17,1 C 16,1 C 12,8 C 57 % 1002,7 hPa 0,0 l/m 0 min 0 min 43 W/m 12,9 km/h (3 Bft) 95,65 %
23.04.2022 19:28 17,0 C 16,1 C 12,8 C 58 % 1002,7 hPa 0,0 l/m 0 min 0 min 41 W/m 9,7 km/h (2 Bft) 95,74 %
23.04.2022 19:30 17,0 C 16,1 C 12,8 C 58 % 1002,6 hPa 0,0 l/m 0 min 0 min 40 W/m 16,1 km/h (3 Bft) 94,29 %
23.04.2022 19:32 16,9 C 16,1 C 12,8 C 58 % 1002,6 hPa 0,0 l/m 0 min 0 min 38 W/m 16,1 km/h (3 Bft) 94,92 %
23.04.2022 19:34 16,9 C 16,1 C 12,2 C 59 % 1002,6 hPa 0,0 l/m 0 min 0 min 33 W/m 9,7 km/h (2 Bft) 93,62 %
23.04.2022 19:36 16,8 C 16,1 C 12,2 C 58 % 1002,7 hPa 0,0 l/m 0 min 0 min 31 W/m 9,7 km/h (2 Bft) 94,29 %
23.04.2022 19:38 16,8 C 16,1 C 12,2 C 58 % 1002,6 hPa 0,0 l/m 0 min 0 min 29 W/m 12,9 km/h (3 Bft) 96,55 %
23.04.2022 19:40 16,8 C 16,1 C 12,2 C 59 % 1002,6 hPa 0,0 l/m 0 min 0 min 26 W/m 9,7 km/h (2 Bft) 94,29 %
23.04.2022 19:42 16,8 C 16,1 C 12,2 C 59 % 1002,6 hPa 0,0 l/m 0 min 0 min 25 W/m 12,9 km/h (3 Bft) 96,61 %
23.04.2022 19:44 16,7 C 16,1 C 12,2 C 58 % 1002,6 hPa 0,0 l/m 0 min 0 min 23 W/m 16,1 km/h (3 Bft) 93,62 %
23.04.2022 19:46 16,7 C 16,1 C 12,2 C 59 % 1002,6 hPa 0,0 l/m 0 min 0 min 23 W/m 12,9 km/h (3 Bft) 95,74 %
23.04.2022 19:48 16,7 C 16,1 C 12,2 C 59 % 1002,7 hPa 0,0 l/m 0 min 0 min 21 W/m 9,7 km/h (2 Bft) 95,65 %
23.04.2022 19:50 16,7 C 16,1 C 12,2 C 59 % 1002,7 hPa 0,0 l/m 0 min 0 min 21 W/m 6,4 km/h (2 Bft) 97,22 %
23.04.2022 19:52 16,7 C 16,1 C 12,2 C 59 % 1002,6 hPa 0,0 l/m 0 min 0 min 21 W/m 9,7 km/h (2 Bft) 94,83 %
23.04.2022 19:54 16,6 C 16,1 C 12,2 C 59 % 1002,6 hPa 0,0 l/m 0 min 0 min 21 W/m 9,7 km/h (2 Bft) 93,62 %
23.04.2022 19:56 16,6 C 15,6 C 12,2 C 59 % 1002,6 hPa 0,0 l/m 0 min 0 min 21 W/m 9,7 km/h (2 Bft) 97,14 %
23.04.2022 19:58 16,6 C 15,6 C 12,2 C 59 % 1002,6 hPa 0,0 l/m 0 min 0 min 19 W/m 16,1 km/h (3 Bft) 100,00 %
23.04.2022 20:00 16,5 C 15,6 C 12,2 C 59 % 1002,6 hPa 0,0 l/m 0 min 0 min 19 W/m 12,9 km/h (3 Bft) 100,00 %
23.04.2022 20:02 16,5 C 15,6 C 12,2 C 59 % 1002,6 hPa 0,0 l/m 0 min 0 min 18 W/m 12,9 km/h (3 Bft) 97,87 %
23.04.2022 20:04 16,4 C 15,6 C 12,2 C 60 % 1002,6 hPa 0,0 l/m 0 min 0 min 16 W/m 9,7 km/h (2 Bft) 97,14 %
23.04.2022 20:06 16,4 C 15,6 C 12,2 C 60 % 1002,6 hPa 0,0 l/m 0 min 0 min 16 W/m 12,9 km/h (3 Bft) 100,00 %
23.04.2022 20:08 16,4 C 15,6 C 11,7 C 60 % 1002,6 hPa 0,0 l/m 0 min 0 min 15 W/m 9,7 km/h (2 Bft) 100,00 %
23.04.2022 20:10 16,4 C 15,6 C 11,7 C 60 % 1002,5 hPa 0,0 l/m 0 min 0 min 14 W/m 6,4 km/h (2 Bft) 100,00 %
23.04.2022 20:12 16,3 C 15,6 C 11,7 C 60 % 1002,6 hPa 0,0 l/m 0 min 0 min 13 W/m 12,9 km/h (3 Bft) 100,00 %
23.04.2022 20:14 16,3 C 15,6 C 11,7 C 60 % 1002,5 hPa 0,0 l/m 0 min 0 min 12 W/m 9,7 km/h (2 Bft) 100,00 %
23.04.2022 20:16 16,3 C 15,6 C 11,7 C 60 % 1002,5 hPa 0,0 l/m 0 min 0 min 11 W/m 12,9 km/h (3 Bft) 100,00 %
23.04.2022 20:18 16,2 C 15,6 C 11,7 C 61 % 1002,5 hPa 0,0 l/m 0 min 0 min 9 W/m 9,7 km/h (2 Bft) 100,00 %
23.04.2022 20:20 16,2 C 15,6 C 11,7 C 61 % 1002,6 hPa 0,0 l/m 0 min 0 min 9 W/m 9,7 km/h (2 Bft) 100,00 %
23.04.2022 20:22 16,2 C 15,6 C 11,7 C 61 % 1002,6 hPa 0,0 l/m 0 min 0 min 7 W/m 3,2 km/h (1 Bft) 98,31 %
23.04.2022 20:24 16,1 C 15,0 C 11,7 C 61 % 1002,6 hPa 0,0 l/m 0 min 0 min 7 W/m 9,7 km/h (2 Bft) 100,00 %
23.04.2022 20:26 16,1 C 15,0 C 11,7 C 61 % 1002,6 hPa 0,0 l/m 0 min 0 min 6 W/m 9,7 km/h (2 Bft) 100,00 %
23.04.2022 20:28 16,1 C 15,0 C 11,7 C 61 % 1002,6 hPa 0,0 l/m 0 min 0 min 5 W/m 9,7 km/h (2 Bft) 100,00 %
23.04.2022 20:30 16,0 C 15,0 C 11,7 C 62 % 1002,6 hPa 0,0 l/m 0 min 0 min 2 W/m 9,7 km/h (2 Bft) 95,74 %
23.04.2022 20:32 16,0 C 15,0 C 11,7 C 62 % 1002,6 hPa 0,0 l/m 0 min 0 min 0 W/m 9,7 km/h (2 Bft) 97,87 %
23.04.2022 20:34 16,0 C 15,0 C 11,1 C 62 % 1002,6 hPa 0,0 l/m 0 min 0 min 0 W/m 12,9 km/h (3 Bft) 100,00 %
23.04.2022 20:36 15,9 C 15,0 C 11,1 C 62 % 1002,5 hPa 0,0 l/m 0 min 0 min 0 W/m 6,4 km/h (2 Bft) 100,00 %
23.04.2022 20:38 15,9 C 15,0 C 11,1 C 62 % 1002,6 hPa 0,0 l/m 0 min 0 min 0 W/m 12,9 km/h (3 Bft) 100,00 %
23.04.2022 20:40 15,9 C 15,0 C 11,1 C 62 % 1002,5 hPa 0,0 l/m 0 min 0 min 0 W/m 12,9 km/h (3 Bft) 100,00 %
23.04.2022 20:42 15,9 C 15,0 C 11,1 C 62 % 1002,6 hPa 0,0 l/m 0 min 0 min 0 W/m 9,7 km/h (2 Bft) 100,00 %
23.04.2022 20:44 15,8 C 15,0 C 11,1 C 62 % 1002,5 hPa 0,0 l/m 0 min 0 min 0 W/m 12,9 km/h (3 Bft) 100,00 %
23.04.2022 20:46 15,8 C 15,0 C 11,1 C 62 % 1002,5 hPa 0,0 l/m 0 min 0 min 0 W/m 6,4 km/h (2 Bft) 100,00 %
23.04.2022 20:48 15,8 C 15,0 C 11,1 C 62 % 1002,5 hPa 0,0 l/m 0 min 0 min 0 W/m 6,4 km/h (2 Bft) 100,00 %
23.04.2022 20:50 15,8 C 15,0 C 11,1 C 63 % 1002,5 hPa 0,0 l/m 0 min 0 min 0 W/m 9,7 km/h (2 Bft) 100,00 %
23.04.2022 20:52 15,8 C 15,0 C 11,1 C 63 % 1002,5 hPa 0,0 l/m 0 min 0 min 0 W/m 6,4 km/h (2 Bft) 97,87 %
23.04.2022 20:54 15,8 C 15,0 C 11,1 C 64 % 1002,6 hPa 0,0 l/m 0 min 0 min 0 W/m 6,4 km/h (2 Bft) 100,00 %
23.04.2022 20:56 15,7 C 15,0 C 11,1 C 63 % 1002,5 hPa 0,0 l/m 0 min 0 min 0 W/m 9,7 km/h (2 Bft) 95,74 %
23.04.2022 20:58 15,7 C 15,0 C 11,1 C 63 % 1002,5 hPa 0,0 l/m 0 min 0 min 0 W/m 9,7 km/h (2 Bft) 100,00 %
23.04.2022 21:00 15,7 C 15,0 C 11,1 C 63 % 1002,6 hPa 0,0 l/m 0 min 0 min 0 W/m 12,9 km/h (3 Bft) 96,55 %
23.04.2022 21:02 15,7 C 15,0 C 11,1 C 63 % 1002,5 hPa 0,0 l/m 0 min 0 min 0 W/m 9,7 km/h (2 Bft) 94,29 %
23.04.2022 21:04 15,7 C 15,0 C 11,1 C 63 % 1002,5 hPa 0,0 l/m 0 min 0 min 0 W/m 6,4 km/h (2 Bft) 97,87 %
23.04.2022 21:06 15,7 C 15,0 C 11,1 C 63 % 1002,6 hPa 0,0 l/m 0 min 0 min 0 W/m 9,7 km/h (2 Bft) 97,87 %
23.04.2022 21:08 15,7 C 15,0 C 11,1 C 62 % 1002,5 hPa 0,0 l/m 0 min 0 min 0 W/m 6,4 km/h (2 Bft) 97,87 %
23.04.2022 21:10 15,7 C 15,0 C 11,1 C 62 % 1002,5 hPa 0,0 l/m 0 min 0 min 0 W/m 12,9 km/h (3 Bft) 97,87 %
23.04.2022 21:12 15,7 C 15,0 C 11,1 C 62 % 1002,5 hPa 0,0 l/m 0 min 0 min 0 W/m 9,7 km/h (2 Bft) 97,83 %
23.04.2022 21:14 15,7 C 15,0 C 11,1 C 62 % 1002,5 hPa 0,0 l/m 0 min 0 min 0 W/m 12,9 km/h (3 Bft) 97,87 %
23.04.2022 21:16 15,7 C 15,0 C 11,1 C 62 % 1002,5 hPa 0,0 l/m 0 min 0 min 0 W/m 6,4 km/h (2 Bft) 95,74 %
23.04.2022 21:18 15,7 C 15,0 C 11,1 C 62 % 1002,5 hPa 0,0 l/m 0 min 0 min 0 W/m 6,4 km/h (2 Bft) 93,62 %
23.04.2022 21:20 15,7 C 15,0 C 11,1 C 62 % 1002,5 hPa 0,0 l/m 0 min 0 min 0 W/m 6,4 km/h (2 Bft) 91,49 %
23.04.2022 21:22 15,6 C 15,0 C 11,1 C 62 % 1002,5 hPa 0,0 l/m 0 min 0 min 0 W/m 3,2 km/h (1 Bft) 95,74 %
23.04.2022 21:24 15,6 C 15,0 C 11,1 C 63 % 1002,5 hPa 0,0 l/m 0 min 0 min 0 W/m 12,9 km/h (3 Bft) 95,65 %
23.04.2022 21:26 15,6 C 15,0 C 11,1 C 63 % 1002,5 hPa 0,0 l/m 0 min 0 min 0 W/m 6,4 km/h (2 Bft) 95,74 %
23.04.2022 21:28 15,6 C 15,0 C 11,1 C 63 % 1002,5 hPa 0,0 l/m 0 min 0 min 0 W/m 6,4 km/h (2 Bft) 95,74 %
23.04.2022 21:30 15,5 C 15,0 C 11,1 C 63 % 1002,5 hPa 0,0 l/m 0 min 0 min 0 W/m 6,4 km/h (2 Bft) 95,74 %
23.04.2022 21:32 15,5 C 15,0 C 11,1 C 63 % 1002,5 hPa 0,0 l/m 0 min 0 min 0 W/m 3,2 km/h (1 Bft) 95,74 %
23.04.2022 21:34 15,5 C 15,0 C 11,1 C 63 % 1002,5 hPa 0,0 l/m 0 min 0 min 0 W/m 3,2 km/h (1 Bft) 93,62 %
23.04.2022 21:36 15,5 C 15,0 C 10,6 C 63 % 1002,5 hPa 0,0 l/m 0 min 0 min 0 W/m 6,4 km/h (2 Bft) 91,30 %
23.04.2022 21:38 15,4 C 15,0 C 10,6 C 63 % 1002,5 hPa 0,0 l/m 0 min 0 min 0 W/m 6,4 km/h (2 Bft) 93,62 %
23.04.2022 21:40 15,4 C 14,4 C 10,6 C 64 % 1002,5 hPa 0,0 l/m 0 min 0 min 0 W/m 6,4 km/h (2 Bft) 95,74 %
23.04.2022 21:42 15,4 C 14,4 C 10,6 C 64 % 1002,5 hPa 0,0 l/m 0 min 0 min 0 W/m 6,4 km/h (2 Bft) 91,49 %
23.04.2022 21:44 15,3 C 14,4 C 10,6 C 64 % 1002,5 hPa 0,0 l/m 0 min 0 min 0 W/m 6,4 km/h (2 Bft) 95,74 %
23.04.2022 21:46 15,3 C 14,4 C 10,6 C 64 % 1002,5 hPa 0,0 l/m 0 min 0 min 0 W/m 6,4 km/h (2 Bft) 93,62 %
23.04.2022 21:48 15,3 C 14,4 C 10,6 C 64 % 1002,5 hPa 0,0 l/m 0 min 0 min 0 W/m 3,2 km/h (1 Bft) 95,65 %
23.04.2022 21:50 15,3 C 14,4 C 10,6 C 64 % 1002,5 hPa 0,0 l/m 0 min 0 min 0 W/m 3,2 km/h (1 Bft) 95,74 %
23.04.2022 21:52 15,2 C 14,4 C 10,6 C 64 % 1002,5 hPa 0,0 l/m 0 min 0 min 0 W/m 6,4 km/h (2 Bft) 97,87 %
23.04.2022 21:54 15,2 C 14,4 C 10,6 C 64 % 1002,5 hPa 0,0 l/m 0 min 0 min 0 W/m 6,4 km/h (2 Bft) 97,87 %
23.04.2022 21:56 15,2 C 14,4 C 10,6 C 64 % 1002,5 hPa 0,0 l/m 0 min 0 min 0 W/m 6,4 km/h (2 Bft) 97,87 %
23.04.2022 21:58 15,1 C 14,4 C 10,6 C 64 % 1002,5 hPa 0,0 l/m 0 min 0 min 0 W/m 12,9 km/h (3 Bft) 93,62 %
23.04.2022 22:00 15,1 C 14,4 C 10,6 C 63 % 1002,5 hPa 0,0 l/m 0 min 0 min 0 W/m 6,4 km/h (2 Bft) 97,83 %
23.04.2022 22:02 15,1 C 14,4 C 10,6 C 62 % 1002,5 hPa 0,0 l/m 0 min 0 min 0 W/m 6,4 km/h (2 Bft) 97,87 %
23.04.2022 22:04 15,1 C 14,4 C 10,6 C 62 % 1002,4 hPa 0,0 l/m 0 min 0 min 0 W/m 9,7 km/h (2 Bft) 97,87 %
23.04.2022 22:06 15,0 C 14,4 C 10,6 C 61 % 1002,5 hPa 0,0 l/m 0 min 0 min 0 W/m 9,7 km/h (2 Bft) 97,87 %
23.04.2022 22:08 15,0 C 14,4 C 10,6 C 61 % 1002,4 hPa 0,0 l/m 0 min 0 min 0 W/m 9,7 km/h (2 Bft) 93,62 %
23.04.2022 22:10 14,9 C 14,4 C 10,6 C 60 % 1002,4 hPa 0,0 l/m 0 min 0 min 0 W/m 9,7 km/h (2 Bft) 97,83 %
23.04.2022 22:12 14,9 C 14,4 C 10,6 C 59 % 1002,4 hPa 0,0 l/m 0 min 0 min 0 W/m 9,7 km/h (2 Bft) 95,74 %
23.04.2022 22:14 14,9 C 14,4 C 10,6 C 59 % 1002,4 hPa 0,0 l/m 0 min 0 min 0 W/m 16,1 km/h (3 Bft) 97,87 %
23.04.2022 22:16 14,9 C 14,4 C 10,6 C 59 % 1002,4 hPa 0,0 l/m 0 min 0 min 0 W/m 9,7 km/h (2 Bft) 97,87 %
23.04.2022 22:18 14,9 C 14,4 C 10,6 C 58 % 1002,4 hPa 0,0 l/m 0 min 0 min 0 W/m 12,9 km/h (3 Bft) 97,87 %
23.04.2022 22:20 14,9 C 14,4 C 10,6 C 58 % 1002,4 hPa 0,0 l/m 0 min 0 min 0 W/m 9,7 km/h (2 Bft) 97,87 %
23.04.2022 22:22 14,9 C 14,4 C 10,6 C 58 % 1002,4 hPa 0,0 l/m 0 min 0 min 0 W/m 12,9 km/h (3 Bft) 97,83 %
23.04.2022 22:24 14,9 C 14,4 C 10,6 C 57 % 1002,5 hPa 0,0 l/m 0 min 0 min 0 W/m 9,7 km/h (2 Bft) 97,87 %
23.04.2022 22:26 14,9 C 14,4 C 10,6 C 57 % 1002,4 hPa 0,0 l/m 0 min 0 min 0 W/m 9,7 km/h (2 Bft) 95,74 %
23.04.2022 22:28 14,9 C 14,4 C 10,6 C 57 % 1002,4 hPa 0,0 l/m 0 min 0 min 0 W/m 12,9 km/h (3 Bft) 97,87 %
23.04.2022 22:30 14,9 C 14,4 C 10,6 C 56 % 1002,4 hPa 0,0 l/m 0 min 0 min 0 W/m 19,3 km/h (3 Bft) 95,74 %
23.04.2022 22:32 14,9 C 14,4 C 10,6 C 57 % 1002,4 hPa 0,0 l/m 0 min 0 min 0 W/m 6,4 km/h (2 Bft) 97,87 %
23.04.2022 22:34 14,9 C 14,4 C 10,6 C 57 % 1002,4 hPa 0,0 l/m 0 min 0 min 0 W/m 6,4 km/h (2 Bft) 97,83 %
23.04.2022 22:36 14,9 C 14,4 C 10,6 C 57 % 1002,4 hPa 0,0 l/m 0 min 0 min 0 W/m 12,9 km/h (3 Bft) 100,00 %
23.04.2022 22:38 14,9 C 14,4 C 10,6 C 56 % 1002,4 hPa 0,0 l/m 0 min 0 min 0 W/m 12,9 km/h (3 Bft) 100,00 %
23.04.2022 22:40 14,8 C 14,4 C 10,6 C 56 % 1002,4 hPa 0,0 l/m 0 min 0 min 0 W/m 12,9 km/h (3 Bft) 100,00 %
23.04.2022 22:42 14,8 C 14,4 C 10,6 C 56 % 1002,4 hPa 0,0 l/m 0 min 0 min 0 W/m 12,9 km/h (3 Bft) 100,00 %
23.04.2022 22:44 14,9 C 14,4 C 10,6 C 56 % 1002,4 hPa 0,0 l/m 0 min 0 min 0 W/m 19,3 km/h (3 Bft) 100,00 %
23.04.2022 22:46 14,9 C 14,4 C 10,6 C 56 % 1002,4 hPa 0,0 l/m 0 min 0 min 0 W/m 12,9 km/h (3 Bft) 100,00 %
23.04.2022 22:48 14,9 C 14,4 C 10,6 C 55 % 1002,4 hPa 0,0 l/m 0 min 0 min 0 W/m 12,9 km/h (3 Bft) 100,00 %
23.04.2022 22:50 14,9 C 14,4 C 10,6 C 56 % 1002,4 hPa 0,0 l/m 0 min 0 min 0 W/m 12,9 km/h (3 Bft) 100,00 %
23.04.2022 22:52 14,9 C 14,4 C 10,6 C 56 % 1002,4 hPa 0,0 l/m 0 min 0 min 0 W/m 6,4 km/h (2 Bft) 100,00 %
23.04.2022 22:54 14,8 C 14,4 C 10,6 C 55 % 1002,3 hPa 0,0 l/m 0 min 0 min 0 W/m 16,1 km/h (3 Bft) 100,00 %
23.04.2022 22:56 14,8 C 14,4 C 10,6 C 55 % 1002,4 hPa 0,0 l/m 0 min 0 min 0 W/m 9,7 km/h (2 Bft) 100,00 %
23.04.2022 22:58 14,8 C 14,4 C 10,6 C 55 % 1002,4 hPa 0,0 l/m 0 min 0 min 0 W/m 9,7 km/h (2 Bft) 97,83 %
23.04.2022 23:00 14,8 C 14,4 C 10,6 C 56 % 1002,4 hPa 0,0 l/m 0 min 0 min 0 W/m 12,9 km/h (3 Bft) 100,00 %
23.04.2022 23:02 14,8 C 13,9 C 10,6 C 56 % 1002,4 hPa 0,0 l/m 0 min 0 min 0 W/m 12,9 km/h (3 Bft) 100,00 %
23.04.2022 23:04 14,8 C 13,9 C 10,6 C 55 % 1002,4 hPa 0,0 l/m 0 min 0 min 0 W/m 9,7 km/h (2 Bft) 100,00 %
23.04.2022 23:06 14,8 C 13,9 C 10,6 C 55 % 1002,4 hPa 0,0 l/m 0 min 0 min 0 W/m 9,7 km/h (2 Bft) 100,00 %
23.04.2022 23:08 14,8 C 13,9 C 10,6 C 55 % 1002,4 hPa 0,0 l/m 0 min 0 min 0 W/m 12,9 km/h (3 Bft) 97,83 %
23.04.2022 23:10 14,8 C 13,9 C 10,6 C 55 % 1002,4 hPa 0,0 l/m 0 min 0 min 0 W/m 9,7 km/h (2 Bft) 97,87 %
23.04.2022 23:12 14,8 C 13,9 C 10,6 C 55 % 1002,4 hPa 0,0 l/m 0 min 0 min 0 W/m 9,7 km/h (2 Bft) 97,87 %
23.04.2022 23:14 14,8 C 13,9 C 10,6 C 56 % 1002,4 hPa 0,0 l/m 0 min 0 min 0 W/m 9,7 km/h (2 Bft) 97,87 %
23.04.2022 23:16 14,8 C 13,9 C 10,6 C 56 % 1002,4 hPa 0,0 l/m 0 min 0 min 0 W/m 9,7 km/h (2 Bft) 95,74 %
23.04.2022 23:18 14,8 C 13,9 C 10,6 C 56 % 1002,4 hPa 0,0 l/m 0 min 0 min 0 W/m 9,7 km/h (2 Bft) 97,87 %
23.04.2022 23:20 14,7 C 13,9 C 10,0 C 56 % 1002,4 hPa 0,0 l/m 0 min 0 min 0 W/m 9,7 km/h (2 Bft) 97,83 %
23.04.2022 23:22 14,7 C 13,9 C 10,0 C 56 % 1002,4 hPa 0,0 l/m 0 min 0 min 0 W/m 12,9 km/h (3 Bft) 97,87 %
23.04.2022 23:24 14,7 C 13,9 C 10,0 C 56 % 1002,4 hPa 0,0 l/m 0 min 0 min 0 W/m 16,1 km/h (3 Bft) 97,87 %
23.04.2022 23:26 14,7 C 13,9 C 10,0 C 56 % 1002,4 hPa 0,0 l/m 0 min 0 min 0 W/m 6,4 km/h (2 Bft) 97,87 %
23.04.2022 23:28 14,7 C 13,9 C 10,0 C 56 % 1002,3 hPa 0,0 l/m 0 min 0 min 0 W/m 12,9 km/h (3 Bft) 97,87 %
23.04.2022 23:30 14,7 C 13,9 C 10,0 C 56 % 1002,3 hPa 0,0 l/m 0 min 0 min 0 W/m 9,7 km/h (2 Bft) 95,74 %
23.04.2022 23:32 14,6 C 13,9 C 10,0 C 56 % 1002,4 hPa 0,0 l/m 0 min 0 min 0 W/m 9,7 km/h (2 Bft) 97,83 %
23.04.2022 23:34 14,6 C 13,9 C 10,0 C 56 % 1002,3 hPa 0,0 l/m 0 min 0 min 0 W/m 9,7 km/h (2 Bft) 97,87 %
23.04.2022 23:36 14,6 C 13,9 C 10,0 C 56 % 1002,3 hPa 0,0 l/m 0 min 0 min 0 W/m 9,7 km/h (2 Bft) 97,87 %
23.04.2022 23:38 14,6 C 13,9 C 10,0 C 56 % 1002,3 hPa 0,0 l/m 0 min 0 min 0 W/m 9,7 km/h (2 Bft) 97,87 %
23.04.2022 23:40 14,6 C 13,9 C 10,0 C 56 % 1002,3 hPa 0,0 l/m 0 min 0 min 0 W/m 12,9 km/h (3 Bft) 97,87 %
23.04.2022 23:42 14,6 C 13,9 C 10,0 C 56 % 1002,3 hPa 0,0 l/m 0 min 0 min 0 W/m 9,7 km/h (2 Bft) 100,00 %
23.04.2022 23:44 14,6 C 13,9 C 10,0 C 57 % 1002,3 hPa 0,0 l/m 0 min 0 min 0 W/m 9,7 km/h (2 Bft) 100,00 %
23.04.2022 23:46 14,6 C 13,9 C 10,0 C 56 % 1002,3 hPa 0,0 l/m 0 min 0 min 0 W/m 12,9 km/h (3 Bft) 100,00 %
23.04.2022 23:48 14,6 C 13,9 C 10,0 C 56 % 1002,3 hPa 0,0 l/m 0 min 0 min 0 W/m 9,7 km/h (2 Bft) 100,00 %
23.04.2022 23:50 14,5 C 13,9 C 10,0 C 57 % 1002,3 hPa 0,0 l/m 0 min 0 min 0 W/m 9,7 km/h (2 Bft) 100,00 %
23.04.2022 23:52 14,5 C 13,9 C 10,0 C 57 % 1002,2 hPa 0,0 l/m 0 min 0 min 0 W/m 9,7 km/h (2 Bft) 100,00 %
23.04.2022 23:54 14,5 C 13,9 C 10,0 C 57 % 1002,3 hPa 0,0 l/m 0 min 0 min 0 W/m 9,7 km/h (2 Bft) 100,00 %
23.04.2022 23:56 14,4 C 13,9 C 10,0 C 57 % 1002,2 hPa 0,0 l/m 0 min 0 min 0 W/m 6,4 km/h (2 Bft) 97,83 %
23.04.2022 23:58 14,4 C 13,9 C 10,0 C 57 % 1002,2 hPa 0,0 l/m 0 min 0 min 0 W/m 9,7 km/h (2 Bft) 97,87 %
_ Min-Zeit 05:52 05:46 04:56 15:44 23:52 - - - - 00:08 08:18
Minimum _ 7,9 C 6,7 C 3,9 C 51 % 1002,2 hPa - - - - 3,2 km/h (1 Bft) 47,62 %
_ Max-Zeit 15:54 16:20 12:46 07:02 00:00 00:00 08:38 00:00 13:22 13:00 00:28
Maximum _ 20,9 C 25,0 C 18,9 C 95 % 1005,5 hPa 0,0 l/m 2 min 0 min 1005 W/m 32,2 km/h
NW (5 Bft)
100,00 %
Durchschnitt _ 14,1 C 14,6 C 10,1 C 71 % 1003,9 hPa #0,0 l/m #6:58 h #0 min. 335 W/m 12,3 km/h (3 Bft) 97,53 %
© 2022 W. Hausmann